Data for 06/09/2011

Time Sea-Level Adjusted Pressure Absolute Pressure Temperature Relative Humidity Dew Point Precipitation   
(mb) (inHg) (mb) (inHg) (C) (F) (%) (C) (F) (mm) (in)
00:01 1018 30.06 847 25.01 7.2 45 91 5.8 42.4 7.6 0.299
00:02 1018 30.06 847 25.01 7.2 45 91 5.8 42.4 7.61 0.3
00:03 1018 30.06 847 25.01 7.2 44.9 91 5.8 42.4 7.61 0.3
00:04 1018 30.06 847 25.01 7.2 45 91 5.8 42.5 7.57 0.298
00:05 1018 30.06 847 25.01 7.2 45 91 5.8 42.5 7.57 0.298
00:06 1018 30.06 847 25.01 7.2 44.9 91 5.8 42.4 7.54 0.297
00:07 1018 30.06 847 25.01 7.2 44.9 91 5.7 42.3 7.61 0.3
00:08 1018 30.06 847 25.01 7.2 45 90 5.7 42.3 7.58 0.298
00:09 1018 30.06 847 25.01 7.2 45 90 5.8 42.4 7.58 0.298
00:10 1018 30.06 847 25.01 7.2 45 91 5.8 42.5 7.59 0.299
00:11 1018 30.06 847 25.01 7.2 45 91 5.8 42.4 7.57 0.298
00:12 1018 30.06 847 25.01 7.2 45 91 5.8 42.4 7.56 0.298
00:13 1018 30.06 847 25.01 7.2 45 91 5.8 42.5 7.55 0.297
00:14 1018 30.06 847 25.01 7.2 44.9 91 5.8 42.5 7.56 0.298
00:15 1018 30.06 847 25.01 7.2 44.9 91 5.8 42.5 7.57 0.298
00:16 1018 30.06 847 25.01 7.2 44.9 91 5.8 42.5 7.53 0.296
00:17 1018 30.06 847 25.01 7.2 44.9 91 5.9 42.5 7.53 0.296
00:18 1018 30.06 848 25.04 7.2 44.9 91 5.8 42.5 7.54 0.297
00:19 1018 30.06 847 25.01 7.2 44.9 91 5.9 42.6 7.58 0.298
00:20 1018 30.06 847 25.01 7.2 45 91 5.9 42.6 7.55 0.297
00:21 1018 30.06 847 25.01 7.2 44.9 91 5.9 42.5 7.54 0.297
00:22 1018 30.06 848 25.04 7.2 45 91 5.9 42.6 7.58 0.298
00:23 1018 30.06 847 25.01 7.2 44.9 91 5.9 42.5 7.6 0.299
00:24 1018 30.06 847 25.01 7.2 45 91 5.9 42.6 7.59 0.299
00:25 1018 30.06 847 25.01 7.2 45 91 5.9 42.6 7.55 0.297
00:26 1018 30.06 847 25.01 7.2 45 92 5.9 42.7 7.58 0.298
00:27 1018 30.06 847 25.01 7.2 44.9 91 5.9 42.6 7.55 0.297
00:28 1018 30.06 847 25.01 7.2 45 92 5.9 42.7 7.56 0.298
00:29 1018 30.06 847 25.01 7.2 44.9 92 5.9 42.7 7.59 0.299
00:30 1018 30.06 847 25.01 7.2 44.9 92 5.9 42.6 7.54 0.297
00:31 1018 30.06 847 25.01 7.2 44.9 92 5.9 42.7 7.5 0.295
00:32 1018 30.06 847 25.01 7.2 44.9 92 6 42.8 7.54 0.297
00:33 1018 30.06 847 25.01 7.2 44.9 92 5.9 42.7 7.54 0.297
00:34 1018 30.06 847 25.01 7.2 44.9 92 6 42.7 7.51 0.296
00:35 1018 30.06 847 25.01 7.1 44.8 92 5.9 42.6 7.53 0.296
00:36 1018 30.06 847 25.01 7.2 44.9 92 5.9 42.6 7.5 0.295
00:37 1018 30.06 847 25.01 7.2 44.9 92 6 42.7 7.51 0.296
00:38 1018 30.06 847 25.01 7.2 44.9 92 5.9 42.7 7.54 0.297
00:39 1018 30.06 847 25.01 7.2 44.9 92 6 42.8 7.49 0.295
00:40 1018 30.06 847 25.01 7.2 44.9 92 6 42.8 7.57 0.298
00:41 1018 30.06 847 25.01 7.1 44.9 92 6 42.7 7.53 0.296
00:42 1018 30.06 847 25.01 7.2 44.9 92 5.9 42.7 7.52 0.296
00:43 1018 30.06 847 25.01 7.2 44.9 92 6 42.8 7.52 0.296
00:44 1018 30.06 847 25.01 7.2 44.9 92 6 42.9 7.58 0.298
00:45 1018 30.06 847 25.01 7.1 44.8 93 6 42.8 7.48 0.294
00:46 1018 30.06 847 25.01 7.1 44.8 93 6 42.8 7.5 0.295
00:47 1018 30.06 847 25.01 7.1 44.8 93 6 42.8 7.48 0.294
00:48 1018 30.06 847 25.01 7.1 44.8 93 6 42.9 7.46 0.294
00:49 1018 30.06 847 25.01 7.1 44.8 93 6 42.8 7.5 0.295
00:50 1018 30.06 847 25.01 7.1 44.8 93 6 42.8 7.47 0.294
00:51 1018 30.06 847 25.01 7.1 44.7 93 6 42.9 7.46 0.294
00:52 1018 30.06 847 25.01 7.1 44.7 93 6 42.8 7.44 0.293
00:53 1018 30.06 847 25.01 7.1 44.8 93 6 42.8 7.45 0.293
00:54 1018 30.06 847 25.01 7.1 44.8 93 6 42.8 7.5 0.295
00:55 1018 30.06 847 25.01 7.1 44.7 93 6 42.7 7.45 0.293
00:56 1018 30.06 847 25.01 7.1 44.8 93 6 42.9 7.49 0.295
00:57 1018 30.06 847 25.01 7.1 44.7 93 6 42.7 7.46 0.294
00:58 1018 30.06 847 25.01 7.1 44.8 93 6 42.9 7.48 0.294
00:59 1018 30.06 847 25.01 7.1 44.8 93 6 42.8 7.46 0.294
01:00 1018 30.06 847 25.01 7.1 44.8 93 6 42.8 7.47 0.294
01:01 1018 30.06 847 25.01 7.1 44.8 93 6 42.8 7.5 0.295
01:02 1018 30.06 847 25.01 7.1 44.8 92 6 42.7 7.48 0.294
01:03 1018 30.06 847 25.01 7.1 44.8 92 5.9 42.7 7.53 0.296
01:04 1018 30.06 847 25.01 7.2 44.9 92 6 42.7 7.5 0.295
01:05 1018 30.06 847 25.01 7.2 44.9 92 6 42.8 7.51 0.296
01:06 1018 30.06 847 25.01 7.2 44.9 92 6 42.7 7.53 0.296
01:07 1018 30.06 847 25.01 7.2 44.9 92 6 42.8 7.52 0.296
01:08 1018 30.06 847 25.01 7.2 44.9 92 6 42.8 7.5 0.295
01:09 1018 30.06 847 25.01 7.2 44.9 92 6 42.8 7.46 0.294
01:10 1018 30.06 847 25.01 7.1 44.9 92 6 42.8 7.49 0.295
01:11 1018 30.06 847 25.01 7.1 44.8 92 5.9 42.7 7.5 0.295
01:12 1018 30.06 847 25.01 7.2 44.9 92 6 42.8 7.49 0.295
01:13 1018 30.06 847 25.01 7.2 44.9 92 6 42.7 7.53 0.296
01:14 1018 30.06 847 25.01 7.2 44.9 92 6 42.7 7.5 0.295
01:15 1018 30.06 847 25.01 7.2 44.9 92 6 42.7 7.53 0.296
01:16 1018 30.06 847 25.01 7.2 44.9 92 5.9 42.7 7.51 0.296
01:17 1018 30.06 847 25.01 7.2 44.9 92 6 42.8 7.57 0.298
01:18 1018 30.06 847 25.01 7.2 45 92 6 42.7 7.55 0.297
01:19 1018 30.06 847 25.01 7.2 45 92 6 42.8 7.55 0.297
01:20 1018 30.06 847 25.01 7.2 44.9 92 5.9 42.6 7.58 0.298
01:21 1018 30.06 847 25.01 7.2 45 92 5.9 42.7 7.54 0.297
01:22 1018 30.06 847 25.01 7.2 45 91 5.9 42.6 7.59 0.299
01:23 1018 30.06 847 25.01 7.2 45 91 5.8 42.5 7.54 0.297
01:24 1018 30.06 847 25.01 7.3 45.1 91 5.9 42.6 7.58 0.298
01:25 1018 30.06 847 25.01 7.3 45.1 91 5.8 42.5 7.61 0.3
01:26 1018 30.06 847 25.01 7.3 45.1 91 5.8 42.5 7.62 0.3
01:27 1018 30.06 847 25.01 7.3 45.1 90 5.8 42.5 7.62 0.3
01:28 1018 30.06 847 25.01 7.3 45.1 90 5.8 42.5 7.61 0.3
01:29 1018 30.06 847 25.01 7.3 45.1 91 5.9 42.6 7.61 0.3
01:30 1018 30.06 847 25.01 7.3 45.1 91 5.9 42.6 7.61 0.3
01:31 1018 30.06 847 25.01 7.3 45.1 91 5.9 42.5 7.66 0.302
01:32 1018 30.06 847 25.01 7.3 45.1 91 5.9 42.6 7.62 0.3
01:33 1018 30.06 847 25.01 7.3 45.1 91 5.9 42.6 7.58 0.298
01:34 1018 30.06 847 25.01 7.3 45.1 91 5.9 42.6 7.62 0.3
01:35 1018 30.06 847 25.01 7.3 45.1 91 5.9 42.7 7.59 0.299
01:36 1018 30.06 847 25.01 7.3 45.1 91 5.9 42.6 7.58 0.298
01:37 1018 30.06 847 25.01 7.2 45 91 5.9 42.6 7.59 0.299
01:38 1018 30.06 847 25.01 7.2 45 91 5.9 42.7 7.59 0.299
01:39 1018 30.06 847 25.01 7.2 45 92 6 42.7 7.59 0.299
01:40 1018 30.06 847 25.01 7.2 44.9 92 6 42.8 7.54 0.297
01:41 1018 30.06 847 25.01 7.2 44.9 92 6 42.8 7.5 0.295
01:42 1018 30.06 847 25.01 7.1 44.8 93 6 42.8 7.51 0.296
01:43 1018 30.06 847 25.01 7.1 44.8 93 6 42.8 7.45 0.293
01:44 1018 30.06 847 25.01 7.1 44.8 93 6 42.8 7.44 0.293
01:45 1018 30.06 847 25.01 7.1 44.8 93 6 42.8 7.46 0.294
01:46 1018 30.06 847 25.01 7.1 44.7 93 6 42.8 7.42 0.292
01:47 1018 30.06 847 25.01 7.1 44.8 93 6.1 43 7.41 0.292
01:48 1018 30.06 847 25.01 7 44.7 94 6.1 42.9 7.38 0.291
01:49 1018 30.06 847 25.01 7.1 44.7 94 6.1 43 7.36 0.29
01:50 1018 30.06 847 25.01 7 44.6 94 6.1 43 7.34 0.289
01:51 1018 30.06 847 25.01 7 44.6 94 6.1 43 7.35 0.289
01:52 1018 30.06 847 25.01 7 44.6 94 6.1 43 7.35 0.289
01:53 1018 30.06 847 25.01 7 44.5 94 6.1 43 7.36 0.29
01:54 1018 30.06 847 25.01 6.9 44.5 94 6 42.9 7.28 0.287
01:55 1018 30.06 847 25.01 7 44.5 94 6.1 42.9 7.28 0.287
01:56 1018 30.06 847 25.01 7 44.6 94 6.1 43 7.3 0.287
01:57 1018 30.06 847 25.01 7 44.6 94 6.1 43 7.33 0.289
01:58 1018 30.06 847 25.01 7 44.5 94 6.1 43 7.29 0.287
01:59 1018 30.06 847 25.01 6.9 44.5 94 6.1 42.9 7.28 0.287
02:00 1018 30.06 847 25.01 6.9 44.5 94 6.1 42.9 7.25 0.285
02:01 1018 30.06 847 25.01 6.9 44.5 94 6 42.9 7.25 0.285
02:02 1018 30.06 847 25.01 6.9 44.4 94 6 42.8 7.25 0.285
02:03 1018 30.06 847 25.01 7 44.5 94 6 42.8 7.27 0.286
02:04 1018 30.06 847 25.01 6.9 44.5 94 6 42.8 7.27 0.286
02:05 1018 30.06 847 25.01 6.9 44.5 94 6 42.8 7.25 0.285
02:06 1018 30.06 847 25.01 7 44.5 94 6 42.8 7.25 0.285
02:07 1018 30.06 847 25.01 6.9 44.5 94 6 42.8 7.25 0.285
02:08 1018 30.06 847 25.01 7 44.5 94 6 42.9 7.25 0.285
02:09 1018 30.06 847 25.01 7 44.5 94 6.1 42.9 7.24 0.285
02:10 1018 30.06 847 25.01 7 44.6 94 6.1 43 7.26 0.286
02:11 1018 30.06 847 25.01 7 44.5 94 6.1 43 7.3 0.287
02:12 1018 30.06 847 25.01 7 44.5 94 6.1 43 7.3 0.287
02:13 1018 30.06 847 25.01 7 44.5 95 6.1 43.1 7.31 0.288
02:14 1018 30.06 847 25.01 6.9 44.5 95 6.1 43 7.28 0.287
02:15 1018 30.06 847 25.01 6.9 44.4 94 6.1 42.9 7.27 0.286
02:16 1018 30.06 847 25.01 6.9 44.5 95 6.1 43 7.27 0.286
02:17 1018 30.06 847 25.01 6.9 44.5 95 6.1 43 7.23 0.285
02:18 1018 30.06 847 25.01 6.9 44.5 94 6.1 42.9 7.25 0.285
02:19 1018 30.06 847 25.01 6.9 44.4 94 6 42.9 7.24 0.285
02:20 1018 30.06 847 25.01 6.9 44.4 94 6 42.9 7.23 0.285
02:21 1018 30.06 847 25.01 6.9 44.4 94 6 42.9 7.18 0.283
02:22 1018 30.06 847 25.01 6.9 44.4 94 6 42.8 7.19 0.283
02:23 1018 30.06 847 25.01 6.8 44.3 94 6 42.7 7.24 0.285
02:24 1018 30.06 847 25.01 6.8 44.2 94 5.9 42.7 7.17 0.282
02:25 1018 30.06 847 25.01 6.8 44.2 94 6 42.7 7.18 0.283
02:26 1018 30.06 847 25.01 6.8 44.2 95 6 42.8 7.15 0.281
02:27 1018 30.06 847 25.01 6.8 44.2 95 6 42.8 7.14 0.281
02:28 1018 30.06 847 25.01 6.7 44 95 5.9 42.7 7.11 0.28
02:29 1018 30.06 847 25.01 6.7 44 95 6 42.7 7.11 0.28
02:30 1018 30.06 847 25.01 6.7 44 95 6 42.7 7.1 0.28
02:31 1018 30.06 847 25.01 6.7 44 96 6 42.8 7.09 0.279
02:32 1018 30.06 847 25.01 6.7 44 96 6 42.9 7.09 0.279
02:33 1018 30.06 847 25.01 6.6 43.9 96 6 42.8 7.06 0.278
02:34 1018 30.06 847 25.01 6.7 44 96 6 42.9 7.05 0.278
02:35 1018 30.06 847 25.01 6.7 44 96 6 42.8 7.08 0.279
02:36 1018 30.06 847 25.01 6.6 43.8 95 5.9 42.6 6.962 0.274
02:37 1018 30.06 847 25.01 6.6 43.8 95 5.8 42.5 6.911 0.272
02:38 1018 30.06 847 25.01 6.5 43.7 95 5.8 42.4 6.877 0.271
02:39 1018 30.06 847 25.01 6.5 43.7 95 5.8 42.4 6.917 0.272
02:40 1018 30.06 847 25.01 6.4 43.5 95 5.7 42.3 6.775 0.267
02:41 1018 30.06 847 25.01 6.4 43.4 95 5.6 42.1 6.747 0.266
02:42 1018 30.06 847 25.01 6.3 43.4 95 5.6 42 6.639 0.261
02:43 1018 30.06 847 25.01 6.2 43.2 95 5.5 41.9 6.6 0.26
02:44 1018 30.06 847 25.01 6.2 43.1 95 5.5 41.8 6.509 0.256
02:45 1018 30.06 847 25.01 6.1 43 96 5.5 41.9 6.538 0.257
02:46 1018 30.06 847 25.01 6.1 43 96 5.5 41.8 6.492 0.256
02:47 1018 30.06 847 25.01 6.1 43 96 5.5 41.8 6.487 0.255
02:48 1018 30.06 847 25.01 6.1 42.9 96 5.4 41.8 6.436 0.253
02:49 1018 30.06 847 25.01 6.1 42.9 96 5.5 41.8 6.464 0.254
02:50 1018 30.06 847 25.01 6 42.8 96 5.4 41.8 6.391 0.252
02:51 1018 30.06 847 25.01 6 42.8 96 5.5 41.8 6.368 0.251
02:52 1018 30.06 847 25.01 6 42.8 96 5.4 41.7 6.368 0.251
02:53 1018 30.06 847 25.01 6 42.8 96 5.4 41.8 6.379 0.251
02:54 1018 30.06 847 25.01 6 42.8 96 5.4 41.8 6.345 0.25
02:55 1018 30.06 847 25.01 6 42.7 96 5.4 41.7 6.334 0.249
02:56 1018 30.06 847 25.01 5.9 42.7 96 5.4 41.7 6.334 0.249
02:57 1018 30.06 847 25.01 5.9 42.7 96 5.3 41.6 6.345 0.25
02:58 1018 30.06 847 25.01 5.9 42.7 96 5.3 41.6 6.317 0.249
02:59 1018 30.06 847 25.01 5.9 42.6 96 5.3 41.6 6.317 0.249
03:00 1018 30.06 847 25.01 5.9 42.7 96 5.4 41.6 6.3 0.248
03:01 1018 30.06 847 25.01 5.9 42.6 96 5.4 41.6 6.283 0.247
03:02 1018 30.06 847 25.01 5.9 42.6 96 5.3 41.6 6.277 0.247
03:03 1018 30.06 847 25.01 5.9 42.7 96 5.4 41.7 6.277 0.247
03:04 1018 30.06 847 25.01 5.8 42.5 96 5.3 41.5 6.289 0.248
03:05 1018 30.06 847 25.01 5.9 42.6 96 5.4 41.6 6.266 0.247
03:06 1018 30.06 847 25.01 5.8 42.5 96 5.3 41.6 6.289 0.248
03:07 1018 30.06 847 25.01 5.9 42.6 96 5.3 41.5 6.238 0.246
03:08 1018 30.06 847 25.01 5.9 42.6 96 5.4 41.6 6.249 0.246
03:09 1018 30.06 847 25.01 5.9 42.5 96 5.3 41.6 6.238 0.246
03:10 1018 30.06 847 25.01 5.8 42.5 96 5.2 41.4 6.249 0.246
03:11 1018 30.06 847 25.01 5.9 42.5 96 5.3 41.5 6.204 0.244
03:12 1018 30.06 847 25.01 5.8 42.5 96 5.3 41.5 6.232 0.245
03:13 1018 30.06 847 25.01 5.8 42.5 96 5.2 41.4 6.21 0.244
03:14 1018 30.06 847 25.01 5.9 42.5 96 5.3 41.5 6.215 0.245
03:15 1018 30.06 847 25.01 5.9 42.5 96 5.3 41.5 6.226 0.245
03:16 1018 30.06 847 25.01 5.8 42.5 96 5.3 41.5 6.221 0.245
03:17 1018 30.06 847 25.01 5.8 42.5 96 5.3 41.5 6.21 0.244
03:18 1018 30.06 847 25.01 5.9 42.5 96 5.3 41.5 6.243 0.246
03:19 1018 30.06 847 25.01 5.8 42.5 96 5.3 41.5 6.243 0.246
03:20 1018 30.06 847 25.01 5.9 42.6 96 5.3 41.5 6.198 0.244
03:21 1018 30.06 847 25.01 5.9 42.5 96 5.3 41.5 6.193 0.244
03:22 1018 30.06 847 25.01 5.8 42.5 96 5.3 41.5 6.187 0.244
03:23 1018 30.06 847 25.01 5.8 42.5 96 5.2 41.4 6.159 0.242
03:24 1018 30.06 847 25.01 5.8 42.5 96 5.2 41.4 6.187 0.244
03:25 1018 30.06 847 25.01 5.8 42.5 96 5.2 41.3 6.221 0.245
03:26 1018 30.06 847 25.01 5.9 42.6 96 5.2 41.4 6.198 0.244
03:27 1018 30.06 847 25.01 5.8 42.5 96 5.2 41.4 6.21 0.244
03:28 1018 30.06 847 25.01 5.8 42.5 96 5.2 41.3 6.21 0.244
03:29 1018 30.06 847 25.01 5.8 42.5 96 5.2 41.3 6.193 0.244
03:30 1018 30.06 847 25.01 5.8 42.5 96 5.2 41.4 6.193 0.244
03:31 1018 30.06 847 25.01 5.8 42.5 96 5.2 41.3 6.193 0.244
03:32 1018 30.06 847 25.01 5.8 42.5 96 5.2 41.3 6.198 0.244
03:33 1018 30.06 847 25.01 5.8 42.5 96 5.2 41.4 6.204 0.244
03:34 1018 30.06 847 25.01 5.8 42.5 96 5.2 41.3 6.187 0.244
03:35 1018 30.06 847 25.01 5.8 42.5 96 5.2 41.3 6.187 0.244
03:36 1018 30.06 847 25.01 5.8 42.5 96 5.2 41.4 6.193 0.244
03:37 1018 30.06 847 25.01 5.8 42.5 96 5.2 41.3 6.198 0.244
03:38 1018 30.06 847 25.01 5.8 42.5 96 5.2 41.4 6.204 0.244
03:39 1018 30.06 847 25.01 5.8 42.5 96 5.2 41.4 6.181 0.243
03:40 1018 30.06 847 25.01 5.8 42.5 96 5.2 41.4 6.176 0.243
03:41 1018 30.06 847 25.01 5.8 42.5 96 5.2 41.4 6.164 0.243
03:42 1018 30.06 847 25.01 5.8 42.4 96 5.2 41.4 6.176 0.243
03:43 1018 30.06 847 25.01 5.8 42.5 96 5.2 41.4 6.17 0.243
03:44 1018 30.06 847 25.01 5.8 42.5 96 5.2 41.4 6.159 0.242
03:45 1018 30.06 847 25.01 5.8 42.4 96 5.2 41.4 6.176 0.243
03:46 1018 30.06 847 25.01 5.8 42.4 96 5.2 41.3 6.13 0.241
03:47 1018 30.06 847 25.01 5.8 42.4 96 5.2 41.4 6.159 0.242
03:48 1018 30.06 847 25.01 5.8 42.4 96 5.2 41.3 6.153 0.242
03:49 1018 30.06 847 25.01 5.8 42.4 96 5.1 41.2 6.181 0.243
03:50 1018 30.06 847 25.01 5.8 42.4 96 5.2 41.3 6.164 0.243
03:51 1018 30.06 847 25.01 5.8 42.4 96 5.2 41.3 6.136 0.242
03:52 1018 30.06 847 25.01 5.8 42.5 96 5.2 41.4 6.153 0.242
03:53 1018 30.06 847 25.01 5.8 42.5 96 5.2 41.4 6.176 0.243
03:54 1018 30.06 847 25.01 5.8 42.4 96 5.2 41.3 6.176 0.243
03:55 1018 30.06 847 25.01 5.8 42.4 96 5.2 41.4 6.181 0.243
03:56 1018 30.06 847 25.01 5.8 42.5 96 5.2 41.4 6.153 0.242
03:57 1018 30.06 847 25.01 5.8 42.4 96 5.2 41.4 6.198 0.244
03:58 1018 30.06 847 25.01 5.8 42.4 96 5.2 41.4 6.17 0.243
03:59 1018 30.06 847 25.01 5.8 42.4 96 5.2 41.4 6.204 0.244
04:00 1018 30.06 847 25.01 5.8 42.4 96 5.2 41.4 6.17 0.243
04:01 1018 30.06 847 25.01 5.8 42.4 96 5.2 41.3 6.159 0.242
04:02 1018 30.06 847 25.01 5.8 42.4 96 5.2 41.4 6.17 0.243
04:03 1018 30.06 847 25.01 5.8 42.5 96 5.3 41.5 6.164 0.243
04:04 1018 30.06 847 25.01 5.8 42.4 96 5.3 41.5 6.176 0.243
04:05 1018 30.06 847 25.01 5.8 42.5 96 5.3 41.5 6.204 0.244
04:06 1018 30.06 847 25.01 5.8 42.4 96 5.2 41.4 6.198 0.244
04:07 1018 30.06 847 25.01 5.8 42.4 96 5.2 41.4 6.193 0.244
04:08 1018 30.06 847 25.01 5.8 42.5 96 5.2 41.4 6.164 0.243
04:09 1018 30.06 847 25.01 5.8 42.4 96 5.2 41.4 6.147 0.242
04:10 1018 30.06 847 25.01 5.8 42.4 96 5.2 41.4 6.147 0.242
04:11 1018 30.06 847 25.01 5.8 42.4 96 5.2 41.4 6.159 0.242
04:12 1018 30.06 847 25.01 5.8 42.4 96 5.2 41.4 6.125 0.241
04:13 1018 30.06 847 25.01 5.8 42.5 96 5.3 41.5 6.176 0.243
04:14 1018 30.06 847 25.01 5.8 42.5 96 5.3 41.5 6.164 0.243
04:15 1018 30.06 847 25.01 5.8 42.4 96 5.2 41.4 6.193 0.244
04:16 1018 30.06 847 25.01 5.8 42.5 96 5.3 41.5 6.21 0.244
04:17 1018 30.06 847 25.01 5.8 42.5 96 5.3 41.5 6.181 0.243
04:18 1018 30.06 847 25.01 5.8 42.4 96 5.2 41.4 6.181 0.243
04:19 1018 30.06 847 25.01 5.8 42.5 96 5.3 41.5 6.176 0.243
04:20 1018 30.06 847 25.01 5.8 42.5 96 5.3 41.5 6.181 0.243
04:21 1018 30.06 847 25.01 5.8 42.5 96 5.3 41.5 6.215 0.245
04:22 1018 30.06 847 25.01 5.8 42.5 96 5.3 41.6 6.204 0.244
04:23 1018 30.06 847 25.01 5.8 42.5 96 5.3 41.5 6.198 0.244
04:24 1018 30.06 847 25.01 5.8 42.5 96 5.3 41.5 6.181 0.243
04:25 1018 30.06 847 25.01 5.8 42.4 96 5.3 41.5 6.119 0.241
04:26 1018 30.06 847 25.01 5.8 42.5 96 5.3 41.5 6.204 0.244
04:27 1018 30.06 847 25.01 5.8 42.4 96 5.3 41.5 6.17 0.243
04:28 1018 30.06 847 25.01 5.8 42.4 96 5.3 41.5 6.153 0.242
04:29 1018 30.06 847 25.01 5.8 42.4 96 5.2 41.4 6.153 0.242
04:30 1018 30.06 847 25.01 5.8 42.5 96 5.3 41.5 6.153 0.242
04:31 1018 30.06 847 25.01 5.8 42.4 96 5.2 41.4 6.147 0.242
04:32 1018 30.06 847 25.01 5.8 42.4 96 5.2 41.4 6.153 0.242
04:33 1018 30.06 847 25.01 5.8 42.4 96 5.2 41.4 6.125 0.241
04:34 1018 30.06 847 25.01 5.7 42.3 96 5.2 41.3 6.153 0.242
04:35 1018 30.06 847 25.01 5.8 42.4 96 5.2 41.4 6.13 0.241
04:36 1018 30.06 847 25.01 5.8 42.4 96 5.2 41.4 6.181 0.243
04:37 1018 30.06 847 25.01 5.7 42.3 96 5.2 41.3 6.147 0.242
04:38 1018 30.06 847 25.01 5.8 42.4 96 5.2 41.3 6.136 0.242
04:39 1018 30.06 847 25.01 5.8 42.4 96 5.2 41.4 6.164 0.243
04:40 1018 30.06 847 25.01 5.8 42.5 96 5.3 41.5 6.153 0.242
04:41 1018 30.06 847 25.01 5.8 42.4 96 5.2 41.4 6.147 0.242
04:42 1018 30.06 847 25.01 5.8 42.5 96 5.3 41.5 6.226 0.245
04:43 1018 30.06 847 25.01 5.8 42.5 96 5.3 41.5 6.21 0.244
04:44 1018 30.06 847 25.01 5.8 42.4 96 5.2 41.4 6.181 0.243
04:45 1018 30.06 847 25.01 5.8 42.5 96 5.3 41.5 6.198 0.244
04:46 1018 30.06 847 25.01 5.8 42.5 96 5.3 41.5 6.136 0.242
04:47 1018 30.06 847 25.01 5.8 42.4 96 5.2 41.3 6.13 0.241
04:48 1018 30.06 847 25.01 5.8 42.5 96 5.2 41.4 6.142 0.242
04:49 1018 30.06 847 25.01 5.8 42.4 96 5.2 41.3 6.136 0.242
04:50 1018 30.06 847 25.01 5.8 42.4 96 5.2 41.3 6.13 0.241
04:51 1018 30.06 847 25.01 5.8 42.4 96 5.2 41.3 6.125 0.241
04:52 1018 30.06 847 25.01 5.8 42.5 96 5.2 41.4 6.125 0.241
04:53 1018 30.06 847 25.01 5.8 42.5 96 5.2 41.4 6.159 0.242
04:54 1018 30.06 847 25.01 5.8 42.4 96 5.2 41.3 6.159 0.242
04:55 1018 30.06 847 25.01 5.8 42.4 96 5.2 41.4 6.153 0.242
04:56 1018 30.06 847 25.01 5.8 42.5 96 5.2 41.4 6.187 0.244
04:57 1018 30.06 847 25.01 5.8 42.4 96 5.2 41.3 6.142 0.242
04:58 1018 30.06 847 25.01 5.8 42.4 96 5.2 41.3 6.125 0.241
04:59 1018 30.06 847 25.01 5.8 42.4 96 5.2 41.4 6.121 0.241
05:00 1018 30.06 847 25.01 5.8 42.4 96 5.2 41.3 6.115 0.241
05:01 1018 30.06 847 25.01 5.8 42.4 96 5.1 41.2 6.154 0.242
05:02 1018 30.06 847 25.01 5.8 42.4 96 5.1 41.2 6.12 0.241
05:03 1018 30.06 847 25.01 5.8 42.4 96 5.2 41.3 6.16 0.243
05:04 1018 30.06 847 25.01 5.8 42.4 96 5.2 41.3 6.16 0.243
05:05 1018 30.06 847 25.01 5.8 42.4 96 5.2 41.3 6.126 0.241
05:06 1018 30.06 847 25.01 5.8 42.4 96 5.2 41.3 6.154 0.242
05:07 1018 30.06 847 25.01 5.7 42.3 96 5.1 41.2 6.142 0.242
05:08 1018 30.06 847 25.01 5.8 42.4 96 5.1 41.2 6.08 0.239
05:09 1018 30.06 847 25.01 5.8 42.4 95 5.1 41.2 6.114 0.241
05:10 1018 30.06 847 25.01 5.7 42.3 95 5 41.1 6.093 0.24
05:11 1018 30.06 847 25.01 5.7 42.3 95 5.1 41.1 6.087 0.24
05:12 1018 30.06 847 25.01 5.7 42.3 95 5 41 6.087 0.24
05:13 1018 30.06 847 25.01 5.8 42.4 96 5.1 41.2 6.11 0.241
05:14 1018 30.06 847 25.01 5.7 42.3 95 5 41 6.132 0.241
05:15 1018 30.06 847 25.01 5.8 42.4 95 5.1 41.1 6.149 0.242
05:16 1018 30.06 847 25.01 5.8 42.4 95 5.1 41.2 6.144 0.242
05:17 1018 30.06 847 25.01 5.8 42.4 95 5.1 41.2 6.167 0.243
05:18 1018 30.06 847 25.01 5.8 42.4 95 5.1 41.2 6.173 0.243
05:19 1018 30.06 847 25.01 5.8 42.4 96 5.1 41.2 6.185 0.244
05:20 1018 30.06 847 25.01 5.8 42.5 96 5.1 41.3 6.197 0.244
05:21 1018 30.06 847 25.01 5.8 42.5 96 5.2 41.3 6.18 0.243
05:22 1018 30.06 847 25.01 5.8 42.4 96 5.2 41.3 6.175 0.243
05:23 1018 30.06 847 25.01 5.8 42.5 95 5.1 41.2 6.141 0.242
05:24 1018 30.06 847 25.01 5.8 42.4 95 5.1 41.2 6.118 0.241
05:25 1018 30.06 847 25.01 5.8 42.4 96 5.1 41.2 6.113 0.241
05:26 1018 30.06 847 25.01 5.8 42.4 96 5.1 41.2 6.102 0.24
05:27 1018 30.06 847 25.01 5.8 42.4 96 5.1 41.3 6.175 0.243
05:28 1018 30.06 847 25.01 5.8 42.4 96 5.2 41.3 6.136 0.242
05:29 1018 30.06 847 25.01 5.8 42.4 96 5.2 41.3 6.159 0.242
05:30 1018 30.06 847 25.01 5.8 42.4 96 5.1 41.2 6.176 0.243
05:31 1018 30.06 847 25.01 5.8 42.4 95 5.1 41.2 6.137 0.242
05:32 1018 30.06 847 25.01 5.7 42.3 95 5 41.1 6.114 0.241
05:33 1018 30.06 847 25.01 5.8 42.4 95 5.1 41.1 6.108 0.24
05:34 1018 30.06 847 25.01 5.7 42.3 95 5 41 6.08 0.239
05:35 1018 30.06 847 25.01 5.8 42.4 95 5 41 6.103 0.24
05:36 1018 30.06 847 25.01 5.7 42.3 95 4.9 40.8 6.092 0.24
05:37 1018 30.06 847 25.01 5.7 42.3 95 4.9 40.8 6.075 0.239
05:38 1018 30.06 847 25.01 5.7 42.3 95 4.9 40.8 6.098 0.24
05:39 1018 30.06 847 25.01 5.7 42.3 94 4.9 40.8 6.103 0.24
05:40 1018 30.06 847 25.01 5.7 42.3 94 4.9 40.8 6.109 0.241
05:41 1018 30.06 847 25.01 5.7 42.3 94 4.9 40.8 6.098 0.24
05:42 1018 30.06 847 25.01 5.7 42.3 94 4.9 40.8 6.092 0.24
05:43 1018 30.06 847 25.01 5.7 42.3 94 4.9 40.8 6.092 0.24
05:44 1018 30.06 847 25.01 5.7 42.3 94 4.9 40.8 6.115 0.241
05:45 1018 30.06 847 25.01 5.7 42.3 94 4.9 40.8 6.104 0.24
05:46 1018 30.06 847 25.01 5.7 42.3 95 5 40.9 6.126 0.241
05:47 1018 30.06 847 25.01 5.8 42.4 95 5 41 6.149 0.242
05:48 1018 30.06 847 25.01 5.8 42.4 95 5 41 6.166 0.243
05:49 1018 30.06 847 25.01 5.8 42.4 95 5 41 6.132 0.241
05:50 1018 30.06 847 25.01 5.8 42.4 95 5 41 6.132 0.241
05:51 1018 30.06 847 25.01 5.8 42.5 95 5 41 6.132 0.241
05:52 1018 30.06 847 25.01 5.8 42.4 94 4.9 40.9 6.177 0.243
05:53 1018 30.06 847 25.01 5.8 42.4 94 4.9 40.9 6.149 0.242
05:54 1018 30.06 847 25.01 5.8 42.4 94 4.9 40.8 6.127 0.241
05:55 1018 30.06 847 25.01 5.8 42.4 94 4.9 40.8 6.144 0.242
05:56 1018 30.06 847 25.01 5.8 42.4 94 4.9 40.8 6.138 0.242
05:57 1018 30.06 847 25.01 5.8 42.4 94 4.8 40.7 6.115 0.241
05:58 1018 30.06 847 25.01 5.7 42.3 93 4.7 40.5 6.093 0.24
05:59 1018 30.06 847 25.01 5.8 42.4 93 4.8 40.6 6.093 0.24
06:00 1018 30.06 847 25.01 5.8 42.4 93 4.8 40.6 6.132 0.241
06:01 1018 30.06 847 25.01 5.8 42.4 93 4.8 40.6 6.11 0.241
06:02 1018 30.06 847 25.01 5.8 42.4 93 4.7 40.4 6.104 0.24
06:03 1018 30.06 847 25.01 5.8 42.4 93 4.6 40.3 6.07 0.239
06:04 1018 30.06 847 25.01 5.8 42.4 92 4.6 40.2 6.064 0.239
06:05 1018 30.06 847 25.01 5.7 42.3 93 4.6 40.3 6.064 0.239
06:06 1018 30.06 847 25.01 5.8 42.4 91 4.5 40 6.076 0.239
06:07 1018 30.06 847 25.01 5.7 42.3 92 4.5 40.1 6.053 0.238
06:08 1018 30.06 847 25.01 5.8 42.4 92 4.6 40.2 6.087 0.24
06:09 1018 30.06 847 25.01 5.8 42.4 92 4.6 40.2 6.076 0.239
06:10 1018 30.06 847 25.01 5.8 42.4 92 4.5 40.1 6.087 0.24
06:11 1018 30.06 847 25.01 5.8 42.4 92 4.5 40.1 6.081 0.239
06:12 1018 30.06 847 25.01 5.8 42.4 92 4.5 40.2 6.076 0.239
06:13 1018 30.06 847 25.01 5.7 42.3 92 4.6 40.2 6.098 0.24
06:14 1018 30.06 847 25.01 5.7 42.3 93 4.6 40.3 6.104 0.24
06:15 1018 30.06 847 25.01 5.7 42.3 93 4.6 40.3 6.098 0.24
06:16 1018 30.06 847 25.01 5.8 42.4 93 4.7 40.4 6.121 0.241
06:17 1018 30.06 847 25.01 5.7 42.3 93 4.7 40.4 6.11 0.241
06:18 1018 30.06 847 25.01 5.7 42.3 93 4.6 40.4 6.115 0.241
06:19 1018 30.06 847 25.01 5.7 42.3 93 4.6 40.4 6.099 0.24
06:20 1018 30.06 847 25.01 5.7 42.3 92 4.5 40.1 6.042 0.238
06:21 1018 30.06 847 25.01 5.7 42.2 92 4.5 40.1 6.025 0.237
06:22 1018 30.06 847 25.01 5.7 42.2 92 4.5 40.1 6.048 0.238
06:23 1018 30.06 847 25.01 5.7 42.2 92 4.5 40.2 6.06 0.239
06:24 1018 30.06 847 25.01 5.7 42.3 92 4.6 40.3 6.043 0.238
06:25 1018 30.06 847 25.01 5.7 42.3 92 4.6 40.3 6.06 0.239
06:26 1018 30.06 847 25.01 5.7 42.2 92 4.6 40.2 6.044 0.238
06:27 1018 30.06 847 25.01 5.7 42.2 92 4.5 40.2 6.039 0.238
06:28 1018 30.06 847 25.01 5.7 42.2 93 4.6 40.3 6.05 0.238
06:29 1018 30.06 848 25.04 5.7 42.2 93 4.6 40.3 6.05 0.238
06:30 1018 30.06 848 25.04 5.7 42.2 93 4.6 40.4 6.044 0.238
06:31 1018 30.06 847 25.01 5.7 42.2 93 4.7 40.4 6.061 0.239
06:32 1018 30.06 847 25.01 5.7 42.2 93 4.6 40.2 6.022 0.237
06:33 1018 30.06 848 25.04 5.7 42.2 92 4.5 40.1 6 0.236
06:34 1018 30.06 847 25.01 5.7 42.2 92 4.5 40.1 6 0.236
06:35 1018 30.06 847 25.01 5.7 42.2 92 4.5 40.1 6.034 0.238
06:36 1018 30.06 847 25.01 5.7 42.2 92 4.5 40.2 6.056 0.238
06:37 1018 30.06 847 25.01 5.7 42.2 93 4.6 40.2 6.073 0.239
06:38 1018 30.06 847 25.01 5.7 42.3 92 4.5 40.2 6.027 0.237
06:39 1018 30.06 847 25.01 5.7 42.2 92 4.6 40.2 6.05 0.238
06:40 1018 30.06 847 25.01 5.7 42.3 93 4.6 40.3 6.038 0.238
06:41 1018 30.06 847 25.01 5.7 42.3 92 4.5 40.1 6.049 0.238
06:42 1018 30.06 847 25.01 5.7 42.3 92 4.6 40.3 6.055 0.238
06:43 1018 30.06 847 25.01 5.7 42.3 93 4.6 40.3 6.044 0.238
06:44 1018 30.06 847 25.01 5.7 42.3 92 4.5 40.1 6.039 0.238
06:45 1018 30.06 847 25.01 5.7 42.2 92 4.5 40 6.039 0.238
06:46 1018 30.06 847 25.01 5.7 42.3 92 4.5 40.1 6.056 0.238
06:47 1018 30.06 847 25.01 5.7 42.3 92 4.6 40.2 6.085 0.24
06:48 1018 30.06 847 25.01 5.8 42.4 92 4.5 40.1 6.114 0.241
06:49 1018 30.06 847 25.01 5.8 42.4 91 4.4 39.9 6.063 0.239
06:50 1018 30.06 847 25.01 5.8 42.4 91 4.4 39.9 6.109 0.241
06:51 1018 30.06 847 25.01 5.8 42.4 90 4.3 39.8 6.075 0.239
06:52 1018 30.06 847 25.01 5.8 42.4 91 4.4 39.9 6.103 0.24
06:53 1018 30.06 847 25.01 5.8 42.4 90 4.3 39.7 6.07 0.239
06:54 1018 30.06 847 25.01 5.8 42.4 89 4.2 39.5 6.087 0.24
06:55 1018 30.06 847 25.01 5.8 42.4 89 4.1 39.4 6.098 0.24
06:56 1018 30.06 847 25.01 5.8 42.4 90 4.3 39.7 6.114 0.241
06:57 1018 30.06 847 25.01 5.8 42.5 90 4.4 39.9 6.114 0.241
06:58 1018 30.06 847 25.01 5.8 42.4 90 4.4 39.8 6.137 0.242
06:59 1018 30.06 847 25.01 5.8 42.4 90 4.2 39.6 6.137 0.242
07:00 1018 30.06 847 25.01 5.8 42.4 89 4.2 39.6 6.143 0.242
07:01 1018 30.06 847 25.01 5.8 42.5 89 4.1 39.4 6.121 0.241
07:02 1018 30.06 848 25.04 5.8 42.5 90 4.3 39.7 6.138 0.242
07:03 1018 30.06 848 25.04 5.8 42.5 89 4.1 39.4 6.144 0.242
07:04 1018 30.06 848 25.04 5.8 42.4 89 4.1 39.5 6.121 0.241
07:05 1018 30.06 847 25.01 5.8 42.5 89 4.2 39.5 6.155 0.242
07:06 1018 30.06 848 25.04 5.8 42.5 89 4.2 39.5 6.11 0.241
07:07 1018 30.06 848 25.04 5.8 42.4 89 4.2 39.5 6.121 0.241
07:08 1018 30.06 848 25.04 5.8 42.4 89 4.1 39.4 6.132 0.241
07:09 1018 30.06 848 25.04 5.8 42.4 89 4.2 39.5 6.143 0.242
07:10 1018 30.06 848 25.04 5.8 42.5 90 4.3 39.8 6.142 0.242
07:11 1018 30.06 848 25.04 5.8 42.5 89 4.2 39.5 6.153 0.242
07:12 1018 30.06 848 25.04 5.8 42.4 89 4.2 39.5 6.159 0.242
07:13 1018 30.06 848 25.04 5.8 42.4 89 4.1 39.3 6.131 0.241
07:14 1018 30.06 848 25.04 5.8 42.5 89 4.1 39.4 6.109 0.241
07:15 1018 30.06 848 25.04 5.8 42.4 89 4.2 39.5 6.092 0.24
07:16 1018 30.06 847 25.01 5.8 42.5 89 4.2 39.5 6.16 0.243
07:17 1018 30.06 848 25.04 5.8 42.5 90 4.3 39.7 6.109 0.241
07:18 1018 30.06 847 25.01 5.8 42.5 90 4.3 39.7 6.126 0.241
07:19 1018 30.06 848 25.04 5.8 42.5 89 4.1 39.4 6.154 0.242
07:20 1018 30.06 847 25.01 5.8 42.4 89 4.2 39.5 6.148 0.242
07:21 1018 30.06 848 25.04 5.8 42.5 90 4.3 39.8 6.125 0.241
07:22 1018 30.06 848 25.04 5.8 42.5 91 4.4 39.9 6.177 0.243
07:23 1018 30.06 848 25.04 5.8 42.5 90 4.3 39.8 6.188 0.244
07:24 1018 30.06 848 25.04 5.8 42.5 89 4.2 39.5 6.194 0.244
07:25 1018 30.06 847 25.01 5.8 42.5 89 4.2 39.5 6.142 0.242
07:26 1018 30.06 848 25.04 5.8 42.5 90 4.3 39.7 6.17 0.243
07:27 1018 30.06 848 25.04 5.9 42.6 90 4.4 40 6.216 0.245
07:28 1018 30.06 847 25.01 5.9 42.6 90 4.4 40 6.211 0.245
07:29 1018 30.06 847 25.01 5.9 42.6 91 4.5 40.2 6.267 0.247
07:30 1018 30.06 847 25.01 5.9 42.6 91 4.6 40.3 6.296 0.248
07:31 1018 30.06 848 25.04 5.9 42.7 91 4.6 40.3 6.302 0.248
07:32 1018 30.06 848 25.04 6 42.8 93 4.9 40.8 6.342 0.25
07:33 1018 30.06 848 25.04 6 42.8 93 5 40.9 6.393 0.252
07:34 1018 30.06 848 25.04 6.1 42.9 93 5 41.1 6.431 0.253
07:35 1018 30.06 847 25.01 6 42.9 93 5 41 6.408 0.252
07:36 1018 30.06 847 25.01 6 42.8 94 5 41.1 6.391 0.252
07:37 1018 30.06 847 25.01 6 42.8 94 5.1 41.2 6.379 0.251
07:38 1018 30.06 847 25.01 6 42.9 94 5.2 41.3 6.413 0.252
07:39 1018 30.06 847 25.01 6 42.8 94 5.1 41.2 6.379 0.251
07:40 1018 30.06 847 25.01 6 42.8 94 5.1 41.1 6.29 0.248
07:41 1018 30.06 847 25.01 6 42.7 94 5.1 41.2 6.358 0.25
07:42 1018 30.06 847 25.01 6 42.7 94 5.1 41.1 6.318 0.249
07:43 1018 30.06 847 25.01 6 42.7 94 5.1 41.2 6.33 0.249
07:44 1018 30.06 847 25.01 5.9 42.7 94 5 41 6.296 0.248
07:45 1018 30.06 847 25.01 5.9 42.6 94 5 41 6.274 0.247
07:46 1018 30.06 847 25.01 6 42.7 94 5 41.1 6.297 0.248
07:47 1018 30.06 847 25.01 5.9 42.7 94 5 41.1 6.291 0.248
07:48 1018 30.06 847 25.01 5.9 42.7 94 5 41.1 6.325 0.249
07:49 1018 30.06 847 25.01 6 42.7 94 5 41 6.32 0.249
07:50 1018 30.06 847 25.01 6 42.8 93 4.9 40.8 6.297 0.248
07:51 1018 30.06 847 25.01 6 42.8 93 4.9 40.9 6.28 0.247
07:52 1018 30.06 848 25.04 6 42.8 92 4.8 40.7 6.263 0.247
07:53 1018 30.06 848 25.04 6 42.7 92 4.8 40.6 6.252 0.246
07:54 1018 30.06 848 25.04 6 42.7 92 4.8 40.7 6.258 0.246
07:55 1018 30.06 848 25.04 5.9 42.7 92 4.7 40.5 6.235 0.245
07:56 1018 30.06 848 25.04 6 42.7 93 4.8 40.7 6.23 0.245
07:57 1018 30.06 848 25.04 5.9 42.7 92 4.8 40.6 6.246 0.246
07:58 1018 30.06 848 25.04 5.9 42.6 92 4.8 40.6 6.2 0.244
07:59 1018 30.06 848 25.04 5.9 42.7 93 4.9 40.8 6.194 0.244
08:00 1018 30.06 848 25.04 5.9 42.7 93 4.8 40.7 6.211 0.245
08:01 1018 30.06 848 25.04 5.9 42.6 93 4.9 40.8 6.188 0.244
08:02 1018 30.06 848 25.04 5.9 42.6 93 4.8 40.6 6.244 0.246
08:03 1018 30.06 848 25.04 5.9 42.6 92 4.7 40.5 6.198 0.244
08:04 1018 30.06 848 25.04 5.9 42.6 93 4.8 40.7 6.198 0.244
08:05 1018 30.06 848 25.04 5.9 42.7 93 4.9 40.9 6.277 0.247
08:06 1018 30.06 848 25.04 6 42.7 93 4.8 40.7 6.299 0.248
08:07 1018 30.06 848 25.04 6 42.7 92 4.8 40.6 6.277 0.247
08:08 1018 30.06 848 25.04 6 42.8 92 4.8 40.6 6.254 0.246
08:09 1018 30.06 848 25.04 6 42.7 92 4.7 40.5 6.272 0.247
08:10 1018 30.06 848 25.04 6 42.8 92 4.7 40.5 6.278 0.247
08:11 1018 30.06 848 25.04 6 42.8 92 4.7 40.5 6.278 0.247
08:12 1018 30.06 848 25.04 6 42.8 92 4.7 40.5 6.288 0.248
08:13 1018 30.06 848 25.04 6 42.8 93 4.9 40.9 6.328 0.249
08:14 1018 30.06 848 25.04 6 42.8 91 4.6 40.3 6.322 0.249
08:15 1018 30.06 848 25.04 6 42.8 91 4.7 40.5 6.327 0.249
08:16 1018 30.06 848 25.04 6 42.8 92 4.8 40.6 6.339 0.25
08:17 1018 30.06 848 25.04 5.9 42.7 91 4.6 40.3 6.305 0.248
08:18 1018 30.06 848 25.04 6 42.7 92 4.7 40.5 6.253 0.246
08:19 1018 30.06 848 25.04 5.9 42.7 91 4.5 40.2 6.242 0.246
08:20 1018 30.06 848 25.04 6 42.7 91 4.7 40.4 6.27 0.247
08:21 1018 30.06 848 25.04 6 42.7 91 4.6 40.3 6.292 0.248
08:22 1018 30.06 848 25.04 6 42.7 90 4.5 40 6.259 0.246
08:23 1018 30.06 848 25.04 5.9 42.7 91 4.5 40.2 6.23 0.245
08:24 1018 30.06 848 25.04 5.9 42.7 90 4.5 40 6.213 0.245
08:25 1018 30.06 848 25.04 5.9 42.7 91 4.6 40.2 6.224 0.245
08:26 1018 30.06 848 25.04 6 42.7 92 4.7 40.5 6.258 0.246
08:27 1018 30.06 848 25.04 6 42.7 92 4.7 40.5 6.235 0.245
08:28 1018 30.06 848 25.04 5.9 42.7 92 4.7 40.5 6.247 0.246
08:29 1018 30.06 848 25.04 5.9 42.7 93 4.9 40.8 6.303 0.248
08:30 1018 30.06 848 25.04 6 42.7 92 4.8 40.7 6.314 0.249
08:31 1018 30.06 848 25.04 6 42.7 93 4.9 40.9 6.354 0.25
08:32 1018 30.06 848 25.04 6 42.8 94 5 41.1 6.331 0.249
08:33 1018 30.06 848 25.04 6 42.8 94 5.1 41.2 6.331 0.249
08:34 1018 30.06 848 25.04 6.1 42.9 95 5.3 41.5 6.41 0.252
08:35 1018 30.06 848 25.04 6.1 43 95 5.3 41.6 6.478 0.255
08:36 1018 30.06 848 25.04 6.1 43 94 5.2 41.3 6.439 0.254
08:37 1018 30.06 848 25.04 6.1 43 94 5.2 41.4 6.399 0.252
08:38 1018 30.06 848 25.04 6.1 42.9 94 5.1 41.2 6.382 0.251
08:39 1018 30.06 848 25.04 6.1 42.9 93 5 41.1 6.371 0.251
08:40 1018 30.06 848 25.04 6.1 42.9 93 5.1 41.1 6.365 0.251
08:41 1018 30.06 848 25.04 6.1 43 93 5.1 41.2 6.421 0.253
08:42 1018 30.06 848 25.04 6.1 43 93 5.1 41.2 6.416 0.253
08:43 1018 30.06 848 25.04 6.2 43.1 94 5.3 41.5 6.489 0.255
08:44 1018 30.06 848 25.04 6.2 43.2 94 5.3 41.5 6.529 0.257
08:45 1018 30.06 848 25.04 6.2 43.2 93 5.2 41.4 6.523 0.257
08:46 1018 30.06 848 25.04 6.2 43.2 93 5.2 41.4 6.54 0.257
08:47 1018 30.06 848 25.04 6.3 43.4 94 5.4 41.8 6.614 0.26
08:48 1018 30.06 848 25.04 6.4 43.6 93 5.4 41.8 6.727 0.265
08:49 1018 30.06 848 25.04 6.4 43.5 93 5.3 41.6 6.727 0.265
08:50 1018 30.06 848 25.04 6.4 43.5 92 5.2 41.4 6.67 0.263
08:51 1018 30.06 848 25.04 6.4 43.6 94 5.5 42 6.732 0.265
08:52 1018 30.06 848 25.04 6.5 43.8 93 5.5 41.8 6.829 0.269
08:53 1018 30.06 848 25.04 6.5 43.8 93 5.5 41.8 6.817 0.268
08:54 1018 30.06 848 25.04 6.5 43.8 92 5.3 41.6 6.846 0.27
08:55 1019 30.09 848 25.04 6.5 43.8 90 5.1 41.1 6.783 0.267
08:56 1018 30.06 848 25.04 6.5 43.8 92 5.3 41.6 6.772 0.267
08:57 1019 30.09 848 25.04 6.6 43.8 91 5.2 41.4 6.846 0.27
08:58 1019 30.09 848 25.04 6.6 43.9 90 5.1 41.2 6.806 0.268
08:59 1019 30.09 848 25.04 6.6 43.9 90 5.1 41.1 6.783 0.267
09:00 1018 30.06 848 25.04 6.7 44 89 5 41.1 6.874 0.271
09:01 1019 30.09 848 25.04 6.7 44 90 5.1 41.2 6.925 0.273
09:02 1019 30.09 848 25.04 6.7 44.1 90 5.2 41.4 6.993 0.275
09:03 1019 30.09 848 25.04 6.8 44.2 90 5.3 41.5 7.03 0.277
09:04 1019 30.09 848 25.04 6.8 44.2 88 4.9 40.8 7.05 0.278
09:05 1019 30.09 848 25.04 6.7 44.1 91 5.3 41.6 6.987 0.275
09:06 1019 30.09 848 25.04 6.7 44.1 89 5 41 7.03 0.277
09:07 1019 30.09 848 25.04 6.7 44 88 4.9 40.8 6.902 0.272
09:08 1019 30.09 848 25.04 6.6 43.9 90 5.1 41.2 6.923 0.273
09:09 1019 30.09 848 25.04 6.6 43.9 91 5.2 41.4 6.951 0.274
09:10 1019 30.09 848 25.04 6.6 44 91 5.3 41.5 6.996 0.275
09:11 1019 30.09 848 25.04 6.7 44 89 5 41 6.984 0.275
09:12 1019 30.09 848 25.04 6.6 43.9 88 4.8 40.6 6.911 0.272
09:13 1019 30.09 848 25.04 6.6 43.8 89 4.9 40.7 6.831 0.269
09:14 1019 30.09 848 25.04 6.6 43.9 89 5 40.9 6.881 0.271
09:15 1019 30.09 848 25.04 6.6 43.9 90 5.1 41.1 6.966 0.274
09:16 1019 30.09 848 25.04 6.7 44 89 5 41 6.966 0.274
09:17 1019 30.09 848 25.04 6.7 44.1 89 5.1 41.2 6.971 0.274
09:18 1019 30.09 848 25.04 6.8 44.2 90 5.2 41.3 7.02 0.276
09:19 1019 30.09 848 25.04 6.8 44.2 90 5.2 41.3 7.06 0.278
09:20 1019 30.09 848 25.04 6.8 44.3 89 5.2 41.4 7.07 0.278
09:21 1019 30.09 848 25.04 6.9 44.3 89 5.2 41.4 7.15 0.281
09:22 1019 30.09 848 25.04 6.9 44.4 88 5.1 41.2 7.11 0.28
09:23 1019 30.09 848 25.04 6.9 44.4 89 5.1 41.3 7.12 0.28
09:24 1019 30.09 848 25.04 7.1 44.7 92 5.9 42.6 7.31 0.288
09:25 1019 30.09 848 25.04 7.2 45 89 5.6 42 7.51 0.296
09:26 1019 30.09 848 25.04 7.3 45.2 87 5.3 41.5 7.57 0.298
09:27 1019 30.09 848 25.04 7.4 45.4 83 4.7 40.5 7.58 0.298
09:28 1019 30.09 848 25.04 7.5 45.4 85 5.1 41.3 7.52 0.296
09:29 1019 30.09 848 25.04 7.6 45.7 85 5.2 41.4 7.66 0.302
09:30 1019 30.09 848 25.04 7.6 45.7 86 5.3 41.6 7.69 0.303
09:31 1019 30.09 848 25.04 7.7 45.8 84 5.2 41.3 7.82 0.308
09:32 1019 30.09 848 25.04 7.7 45.9 87 5.6 42.1 7.82 0.308
09:33 1019 30.09 848 25.04 7.8 46.1 87 5.8 42.5 7.98 0.314
09:34 1019 30.09 848 25.04 7.9 46.3 85 5.5 42 8.16 0.321
09:35 1019 30.09 848 25.04 8 46.4 82 5.1 41.1 8.18 0.322
09:36 1019 30.09 848 25.04 8.1 46.5 85 5.7 42.3 8.21 0.323
09:37 1019 30.09 848 25.04 8.2 46.7 84 5.7 42.3 8.38 0.33
09:38 1019 30.09 848 25.04 8.4 47.1 83 5.7 42.3 8.54 0.336
09:39 1019 30.09 848 25.04 8.5 47.3 84 6 42.7 8.5 0.335
09:40 1019 30.09 848 25.04 8.6 47.5 86 6.4 43.5 8.62 0.339
09:41 1019 30.09 848 25.04 8.8 47.8 80 5.6 42.1 8.84 0.348
09:42 1019 30.09 848 25.04 8.8 47.9 76 4.9 40.8 8.89 0.35
09:43 1019 30.09 848 25.04 8.7 47.7 77 5 41 8.8 0.346
09:44 1019 30.09 848 25.04 8.5 47.3 81 5.4 41.7 8.57 0.337
09:45 1019 30.09 848 25.04 8.4 47 80 5.1 41.1 8.36 0.329
09:46 1019 30.09 848 25.04 8.2 46.8 85 5.9 42.6 8.23 0.324
09:47 1019 30.09 848 25.04 8.3 47 80 5.1 41.2 8.33 0.328
09:48 1019 30.09 848 25.04 8.4 47.2 85 6 42.8 8.42 0.331
09:49 1019 30.09 848 25.04 8.5 47.3 78 4.8 40.7 8.54 0.336
09:50 1019 30.09 848 25.04 8.4 47.2 78 4.9 40.8 8.44 0.332
09:51 1019 30.09 848 25.04 8.4 47.1 79 4.9 40.8 8.39 0.33
09:52 1019 30.09 848 25.04 8.4 47.1 83 5.7 42.3 8.45 0.333
09:53 1019 30.09 848 25.04 8.6 47.4 79 5.2 41.4 8.59 0.338
09:54 1019 30.09 848 25.04 8.5 47.4 79 5.1 41.2 8.51 0.335
09:55 1019 30.09 848 25.04 8.5 47.4 79 5.2 41.3 8.52 0.335
09:56 1019 30.09 848 25.04 8.6 47.4 78 5 41 8.56 0.337
09:57 1019 30.09 848 25.04 8.6 47.5 79 5.2 41.3 8.57 0.337
09:58 1019 30.09 848 25.04 8.5 47.2 79 5.1 41.1 8.54 0.336
09:59 1019 30.09 848 25.04 8.4 47.2 82 5.5 42 8.52 0.335
10:00 1019 30.09 848 25.04 8.4 47.2 81 5.4 41.7 8.64 0.34
10:01 1019 30.09 848 25.04 8.4 47.2 79 5 41 8.6 0.339
10:02 1019 30.09 848 25.04 8.4 47.2 78 4.8 40.7 8.47 0.333
10:03 1019 30.09 848 25.04 8.4 47 78 4.8 40.7 8.34 0.328
10:04 1019 30.09 848 25.04 8.4 47 82 5.5 41.9 8.37 0.33
10:05 1019 30.09 848 25.04 8.4 47 82 5.4 41.7 8.53 0.336
10:06 1019 30.09 848 25.04 8.4 47.1 81 5.3 41.6 8.61 0.339
10:07 1019 30.09 848 25.04 8.5 47.2 80 5.2 41.3 8.62 0.339
10:08 1019 30.09 848 25.04 8.5 47.2 78 4.9 40.8 8.61 0.339
10:09 1019 30.09 848 25.04 8.4 47.2 81 5.4 41.7 8.55 0.337
10:10 1019 30.09 848 25.04 8.4 47.2 85 6.1 42.9 8.68 0.342
10:11 1019 30.09 848 25.04 8.5 47.3 81 5.5 41.8 8.75 0.344
10:12 1019 30.09 848 25.04 8.5 47.2 80 5.2 41.4 8.71 0.343
10:13 1019 30.09 848 25.04 8.4 47.2 81 5.4 41.7 8.77 0.345
10:14 1019 30.09 848 25.04 8.4 47.1 80 5.2 41.4 8.7 0.343
10:15 1019 30.09 848 25.04 8.4 47.1 82 5.4 41.8 8.72 0.343
10:16 1019 30.09 848 25.04 8.4 47.2 83 5.7 42.2 8.8 0.346
10:17 1019 30.09 848 25.04 8.6 47.4 81 5.5 41.9 8.75 0.344
10:18 1019 30.09 848 25.04 8.6 47.4 81 5.6 42 8.77 0.345
10:19 1019 30.09 848 25.04 8.7 47.6 83 5.9 42.7 8.83 0.348
10:20 1019 30.09 848 25.04 8.7 47.6 80 5.5 41.9 8.8 0.346
10:21 1019 30.09 848 25.04 8.8 47.8 84 6.2 43.2 8.97 0.353
10:22 1019 30.09 848 25.04 8.9 48 81 5.9 42.5 9.09 0.358
10:23 1019 30.09 848 25.04 8.9 48 84 6.3 43.4 9.14 0.36
10:24 1019 30.09 848 25.04 9 48.2 80 5.8 42.4 9.23 0.363
10:25 1019 30.09 848 25.04 9 48.2 80 5.8 42.5 9.21 0.363
10:26 1019 30.09 848 25.04 9 48.2 82 6.1 43 9.21 0.363
10:27 1019 30.09 848 25.04 9.1 48.5 84 6.6 44 9.35 0.368
10:28 1019 30.09 848 25.04 9.4 48.8 83 6.6 43.8 9.62 0.379
10:29 1019 30.09 848 25.04 9.6 49.2 77 5.7 42.2 9.67 0.381
10:30 1019 30.09 848 25.04 9.6 49.3 80 6.3 43.3 9.67 0.381
10:31 1019 30.09 848 25.04 9.6 49.3 76 5.6 42.1 9.6 0.378
10:32 1019 30.09 848 25.04 9.7 49.4 80 6.3 43.4 9.79 0.385
10:33 1019 30.09 848 25.04 9.8 49.6 76 5.7 42.3 9.9 0.39
10:34 1019 30.09 848 25.04 9.8 49.7 76 5.8 42.5 9.85 0.388
10:35 1019 30.09 848 25.04 9.8 49.7 79 6.3 43.3 9.85 0.388
10:36 1019 30.09 848 25.04 9.9 49.9 72 5.2 41.4 9.96 0.392
10:37 1019 30.09 848 25.04 9.9 49.9 76 5.9 42.6 9.97 0.393
10:38 1019 30.09 848 25.04 9.9 49.9 72 5.1 41.1 9.91 0.39
10:39 1019 30.09 848 25.04 9.9 49.8 71 5 40.9 9.93 0.391
10:40 1019 30.09 848 25.04 10.1 50.1 80 6.7 44.1 10.22 0.402
10:41 1019 30.09 848 25.04 10.3 50.5 72 5.4 41.8 10.48 0.413
10:42 1019 30.09 848 25.04 10.4 50.8 72 5.7 42.3 10.5 0.413
10:43 1019 30.09 848 25.04 10.5 50.8 79 6.9 44.5 10.45 0.411
10:44 1019 30.09 848 25.04 10.4 50.6 78 6.7 44 10.37 0.408
10:45 1019 30.09 848 25.04 10.3 50.5 77 6.4 43.6 10.41 0.41
10:46 1019 30.09 848 25.04 10.2 50.4 79 6.7 44.1 10.36 0.408
10:47 1019 30.09 848 25.04 10.3 50.6 79 6.8 44.3 10.55 0.415
10:48 1019 30.09 848 25.04 10.5 50.9 70 5.3 41.5 10.65 0.419
10:49 1019 30.09 848 25.04 10.6 51 71 5.5 41.9 10.81 0.426
10:50 1019 30.09 848 25.04 10.7 51.3 66 4.8 40.6 10.86 0.428
10:51 1019 30.09 848 25.04 10.5 50.9 70 5.2 41.4 10.5 0.413
10:52 1018 30.06 848 25.04 10.4 50.7 88 8.5 47.3 10.55 0.415
10:53 1019 30.09 848 25.04 12.4 54.4 58 4.5 40.1 10.54 0.415
10:54 1018 30.06 848 25.04 13.9 57 54 4.7 40.5 10.49 0.413
10:55 1018 30.06 848 25.04 14.3 57.8 53 5 41 10.53 0.415
10:56 1018 30.06 848 25.04 14.7 58.5 59 6.8 44.2 10.53 0.415
10:57 1018 30.06 848 25.04 14.9 58.9 52 5.1 41.2 10.53 0.415
10:58 1018 30.06 848 25.04 15.2 59.3 53 5.8 42.4 10.51 0.414
10:59 1018 30.06 848 25.04 15 59 58 6.9 44.5 10.44 0.411
11:00 1018 30.06 848 25.04 14.7 58.5 58 6.5 43.7 10.36 0.408
11:01 1018 30.06 848 25.04 14.2 57.5 61 6.9 44.3 10.21 0.402
11:02 1018 30.06 848 25.04 13.8 56.8 61 6.6 43.8 10.05 0.396
11:03 1018 30.06 848 25.04 13.4 56.1 63 6.6 43.9 9.86 0.388
11:04 1018 30.06 848 25.04 13.3 55.9 63 6.4 43.6 9.69 0.381
11:05 1018 30.06 848 25.04 13.2 55.8 62 6.2 43.2 9.55 0.376
11:06 1018 30.06 848 25.04 13 55.4 65 6.6 44 9.5 0.374
11:07 1018 30.06 848 25.04 13 55.4 61 5.6 42.1 9.56 0.376
11:08 1018 30.06 848 25.04 13.4 56.2 57 5.1 41.1 9.66 0.38
11:09 1018 30.06 848 25.04 14.4 57.8 60 6.9 44.4 9.86 0.388
11:10 1018 30.06 848 25.04 15 59 56 6.4 43.6 10.14 0.399
11:11 1018 30.06 848 25.04 15.5 59.8 58 7.3 45.1 10.34 0.407
11:12 1018 30.06 848 25.04 16.2 61.1 54 7 44.7 10.64 0.419
11:13 1018 30.06 848 25.04 16.8 62.3 49 6 42.9 10.75 0.423
11:14 1018 30.06 848 25.04 16.8 62.2 49 6.3 43.3 10.72 0.422
11:15 1018 30.06 848 25.04 16.9 62.4 51 6.7 44.1 10.64 0.419
11:16 1018 30.06 848 25.04 17.1 62.9 52 7.3 45.2 10.73 0.422
11:17 1018 30.06 848 25.04 16.9 62.5 50 6.7 44 10.76 0.424
11:18 1018 30.06 848 25.04 16.8 62.3 53 7.2 44.9 10.79 0.425
11:19 1018 30.06 848 25.04 16.6 61.9 50 6.1 43 10.77 0.424
11:20 1018 30.06 848 25.04 16.7 62.1 50 6.4 43.4 10.75 0.423
11:21 1018 30.06 848 25.04 17 62.5 53 7.4 45.2 10.76 0.424
11:22 1018 30.06 847 25.01 16.9 62.4 45 5 41 10.76 0.424
11:23 1018 30.06 847 25.01 16.9 62.4 53 7.5 45.4 10.82 0.426
11:24 1018 30.06 847 25.01 17 62.6 50 6.5 43.7 10.97 0.432
11:25 1018 30.06 847 25.01 17.2 62.9 51 7.1 44.7 11.21 0.441
11:26 1018 30.06 847 25.01 17.2 63 48 6.3 43.4 11.34 0.446
11:27 1018 30.06 847 25.01 17.2 62.9 58 9 48.2 11.39 0.448
11:28 1018 30.06 847 25.01 17.1 62.8 52 7.4 45.3 11.53 0.454
11:29 1018 30.06 847 25.01 17.1 62.8 49 6.3 43.3 11.43 0.45
11:30 1018 30.06 847 25.01 16.7 62 51 6.6 44 11.3 0.445
11:31 1018 30.06 847 25.01 16.1 60.9 54 6.9 44.4 11.18 0.44
11:32 1018 30.06 847 25.01 15.7 60.2 54 6.5 43.7 11.04 0.435
11:33 1018 30.06 847 25.01 15.7 60.3 53 6.3 43.3 11.11 0.437
11:34 1018 30.06 847 25.01 16.3 61.3 55 7.2 44.9 11.24 0.443
11:35 1018 30.06 847 25.01 16.7 62.1 49 6.2 43.1 11.38 0.448
11:36 1018 30.06 847 25.01 16.8 62.2 49 6.2 43.1 11.41 0.449
11:37 1018 30.06 847 25.01 16.1 60.9 54 6.8 44.3 11.23 0.442
11:38 1018 30.06 847 25.01 15.3 59.5 54 6.3 43.3 11.02 0.434
11:39 1018 30.06 847 25.01 15.2 59.3 53 5.7 42.2 10.86 0.428
11:40 1018 30.06 847 25.01 15.4 59.6 48 4.4 40 10.83 0.426
11:41 1018 30.06 847 25.01 16.3 61.3 44 4 39.2 11.04 0.435
11:42 1018 30.06 847 25.01 17.4 63.3 44 5.3 41.5 11.26 0.443
11:43 1018 30.06 847 25.01 17.9 64.3 45 5.8 42.5 11.64 0.458
11:44 1018 30.06 847 25.01 17.6 63.7 45 5.8 42.4 11.61 0.457
11:45 1018 30.06 847 25.01 17.4 63.3 42 4.5 40.1 11.59 0.456
11:46 1018 30.06 847 25.01 17.5 63.4 45 5.4 41.7 11.53 0.454
11:47 1018 30.06 847 25.01 17 62.5 45 5 40.9 11.37 0.448
11:48 1018 30.06 847 25.01 16.9 62.4 47 5.8 42.4 11.35 0.447
11:49 1018 30.06 847 25.01 17.3 63.1 45 5.2 41.4 11.39 0.448
11:50 1018 30.06 847 25.01 17.2 63 48 6.1 43 11.45 0.451
11:51 1018 30.06 847 25.01 17.3 63.2 46 5.6 42 11.49 0.452
11:52 1018 30.06 847 25.01 17.1 62.7 48 6 42.8 11.49 0.452
11:53 1018 30.06 847 25.01 16.5 61.7 57 8 46.5 11.42 0.45
11:54 1018 30.06 847 25.01 16.7 62.1 56 8 46.3 11.59 0.456
11:55 1018 30.06 847 25.01 16.9 62.3 49 6.2 43.1 11.68 0.46
11:56 1018 30.06 847 25.01 17.2 63 46 5.6 42 11.72 0.461
11:57 1018 30.06 847 25.01 17.1 62.8 49 6.5 43.7 11.55 0.455
11:58 1018 30.06 847 25.01 15.9 60.7 55 7 44.6 11.3 0.445
11:59 1018 30.06 847 25.01 14.9 58.8 56 6.1 43 11.05 0.435
12:00 1018 30.06 847 25.01 14.3 57.7 58 6.2 43.1 10.84 0.427
12:01 1018 30.06 847 25.01 14 57.3 54 4.9 40.9 10.73 0.422
12:02 1018 30.06 847 25.01 14.4 57.9 56 5.7 42.3 10.64 0.419
12:03 1018 30.06 847 25.01 15 59.1 58 6.8 44.3 10.73 0.422
12:04 1018 30.06 847 25.01 15.1 59.2 54 5.9 42.6 10.8 0.425
12:05 1018 30.06 847 25.01 15.3 59.5 54 6.1 42.9 10.88 0.428
12:06 1018 30.06 847 25.01 15.2 59.3 52 5.5 41.9 10.94 0.431
12:07 1018 30.06 847 25.01 14.8 58.7 57 6.4 43.5 10.86 0.428
12:08 1018 30.06 847 25.01 14.6 58.3 55 5.8 42.4 10.83 0.426
12:09 1018 30.06 847 25.01 14.7 58.5 54 5.5 41.9 10.81 0.426
12:10 1018 30.06 847 25.01 14.6 58.3 60 6.9 44.5 10.79 0.425
12:11 1018 30.06 847 25.01 14.2 57.5 58 6.1 43 10.78 0.424
12:12 1018 30.06 847 25.01 13.8 56.9 58 5.8 42.4 10.74 0.423
12:13 1018 30.06 847 25.01 13.6 56.5 58 5.5 41.9 10.6 0.417
12:14 1018 30.06 847 25.01 13.6 56.4 59 5.7 42.3 10.56 0.416
12:15 1018 30.06 847 25.01 13.3 55.9 61 5.9 42.6 10.56 0.416
12:16 1018 30.06 847 25.01 13.2 55.8 64 6.7 44 10.58 0.417
12:17 1018 30.06 847 25.01 13.5 56.4 62 6.4 43.4 10.68 0.42
12:18 1018 30.06 847 25.01 13.8 56.8 62 6.6 43.9 10.87 0.428
12:19 1018 30.06 848 25.04 13.9 57 60 6.3 43.3 11 0.433
12:20 1018 30.06 847 25.01 14.1 57.3 55 5.1 41.2 11 0.433
12:21 1018 30.06 847 25.01 14.3 57.8 56 5.7 42.3 11.01 0.433
12:22 1018 30.06 847 25.01 14.3 57.7 60 6.6 43.9 11.13 0.438
12:23 1018 30.06 847 25.01 14.4 57.8 55 5.6 42.2 11.17 0.44
12:24 1018 30.06 847 25.01 14.3 57.8 58 6.3 43.3 11.08 0.436
12:25 1018 30.06 847 25.01 14.3 57.7 53 4.9 40.7 11.04 0.435
12:26 1018 30.06 847 25.01 14.1 57.4 57 5.7 42.3 10.91 0.43
12:27 1018 30.06 847 25.01 14.1 57.3 54 5.1 41.2 10.93 0.43
12:28 1018 30.06 847 25.01 14 57.2 58 5.8 42.5 10.96 0.431
12:29 1018 30.06 847 25.01 14 57.2 55 5.1 41.2 10.99 0.433
12:30 1018 30.06 847 25.01 14 57.2 58 5.9 42.7 11.03 0.434
12:31 1018 30.06 847 25.01 14.2 57.5 59 6.3 43.3 11.09 0.437
12:32 1018 30.06 847 25.01 14.4 58 58 6.3 43.3 11.29 0.444
12:33 1018 30.06 847 25.01 14.4 57.9 57 6 42.8 11.26 0.443
12:34 1018 30.06 847 25.01 14.3 57.7 58 6.1 43 11.21 0.441
12:35 1018 30.06 847 25.01 14.5 58.1 60 6.8 44.2 11.29 0.444
12:36 1018 30.06 847 25.01 14.8 58.6 56 6.2 43.2 11.39 0.448
12:37 1018 30.06 847 25.01 14.7 58.4 57 6.3 43.3 11.38 0.448
12:38 1018 30.06 847 25.01 14.5 58.1 64 7.8 46 11.41 0.449
12:39 1018 30.06 847 25.01 14.4 57.9 57 6 42.7 11.42 0.45
12:40 1018 30.06 848 25.04 14.5 58 60 6.8 44.2 11.31 0.445
12:41 1018 30.06 848 25.04 14.7 58.5 59 6.9 44.4 11.43 0.45
12:42 1018 30.06 847 25.01 15.3 59.6 60 7.6 45.6 11.51 0.453
12:43 1018 30.06 848 25.04 15.9 60.6 52 6.3 43.3 11.57 0.456
12:44 1018 30.06 847 25.01 15.5 59.9 56 6.9 44.4 11.25 0.443
12:45 1018 30.06 847 25.01 15.2 59.3 56 6.6 43.9 11.14 0.439
12:46 1018 30.06 847 25.01 15.7 60.3 54 6.6 43.9 11.28 0.444
12:47 1018 30.06 847 25.01 15.7 60.2 56 7.1 44.8 11.43 0.45
12:48 1018 30.06 847 25.01 15.7 60.2 57 7.2 45 11.59 0.456
12:49 1018 30.06 847 25.01 15.5 60 53 6.2 43.1 11.6 0.457
12:50 1018 30.06 847 25.01 15.1 59.1 56 6.5 43.6 11.39 0.448
12:51 1018 30.06 847 25.01 14.7 58.4 56 6.2 43.1 11.19 0.441
12:52 1018 30.06 847 25.01 14.5 58 57 6.1 43 11.11 0.437
12:53 1018 30.06 848 25.04 14.5 58.1 57 6.2 43.2 11.07 0.436
12:54 1018 30.06 847 25.01 14.6 58.3 59 6.8 44.3 11.07 0.436
12:55 1018 30.06 848 25.04 15 58.9 58 6.9 44.4 11.18 0.44
12:56 1018 30.06 848 25.04 15.3 59.6 58 7.1 44.8 11.22 0.442
12:57 1018 30.06 848 25.04 15.4 59.6 57 7 44.6 11.26 0.443
12:58 1018 30.06 848 25.04 15.1 59.2 55 6.3 43.4 11.15 0.439
12:59 1018 30.06 848 25.04 14.7 58.5 58 6.5 43.8 11.01 0.433
13:00 1018 30.06 848 25.04 14.4 57.8 56 5.9 42.5 10.83 0.426
13:01 1018 30.06 848 25.04 13.8 56.9 58 5.9 42.6 10.57 0.416
13:02 1018 30.06 848 25.04 13.1 55.5 62 5.9 42.7 10.45 0.411
13:03 1018 30.06 848 25.04 12.4 54.2 64 5.7 42.3 10.43 0.411
13:04 1018 30.06 848 25.04 12.1 53.9 65 5.8 42.5 10.39 0.409
13:05 1018 30.06 848 25.04 12 53.7 64 5.5 42 10.37 0.408
13:06 1018 30.06 848 25.04 12 53.6 63 5.3 41.5 10.39 0.409
13:07 1018 30.06 848 25.04 11.9 53.4 65 5.6 42.1 10.32 0.406
13:08 1018 30.06 848 25.04 11.8 53.2 63 5 40.9 10.29 0.405
13:09 1018 30.06 848 25.04 11.6 52.9 67 5.8 42.4 10.29 0.405
13:10 1018 30.06 848 25.04 11.5 52.6 65 5.2 41.4 10.27 0.404
13:11 1018 30.06 848 25.04 11.3 52.3 68 5.6 42.1 10.17 0.4
13:12 1018 30.06 848 25.04 11.3 52.3 68 5.7 42.2 10.14 0.399
13:13 1018 30.06 848 25.04 11.2 52.1 70 6 42.8 10.15 0.4
13:14 1018 30.06 848 25.04 11 51.8 69 5.5 41.9 10.04 0.395
13:15 1018 30.06 848 25.04 11 51.8 68 5.3 41.6 9.94 0.391
13:16 1018 30.06 848 25.04 11 51.8 69 5.5 42 9.91 0.39
13:17 1019 30.09 848 25.04 11.1 52.1 68 5.5 41.8 9.9 0.39
13:18 1019 30.09 848 25.04 11.2 52.2 69 5.8 42.4 9.91 0.39
13:19 1019 30.09 848 25.04 11.4 52.5 68 5.7 42.2 9.99 0.393
13:20 1019 30.09 848 25.04 11.6 52.9 69 6.2 43.1 10.08 0.397
13:21 1019 30.09 848 25.04 11.9 53.4 65 5.6 42.1 10.17 0.4
13:22 1019 30.09 848 25.04 12.2 54 63 5.5 42 10.29 0.405
13:23 1019 30.09 848 25.04 12.5 54.5 64 5.8 42.4 10.39 0.409
13:24 1019 30.09 848 25.04 12.6 54.6 63 5.9 42.5 10.48 0.413
13:25 1019 30.09 848 25.04 12.6 54.6 64 5.9 42.6 10.6 0.417
13:26 1019 30.09 848 25.04 12.6 54.7 61 5.3 41.6 10.71 0.422
13:27 1019 30.09 848 25.04 12.2 53.9 66 6 42.8 10.92 0.43
13:28 1019 30.09 848 25.04 11.9 53.4 67 5.9 42.6 11.21 0.441
13:29 1019 30.09 848 25.04 11.7 53 69 6.2 43.2 11.37 0.448
13:30 1019 30.09 848 25.04 11.3 52.4 65 4.9 40.9 11.25 0.443
13:31 1019 30.09 848 25.04 11.1 51.9 70 5.9 42.6 11.14 0.439
13:32 1019 30.09 848 25.04 11 51.7 70 5.7 42.2 11.18 0.44
13:33 1019 30.09 848 25.04 10.9 51.6 69 5.3 41.6 11.17 0.44
13:34 1019 30.09 848 25.04 10.7 51.3 68 5.1 41.2 11.05 0.435
13:35 1019 30.09 848 25.04 10.6 51.1 70 5.4 41.8 10.98 0.432
13:36 1019 30.09 848 25.04 10.6 51.1 71 5.7 42.2 11.03 0.434
13:37 1019 30.09 848 25.04 10.6 51.1 67 4.8 40.6 10.95 0.431
13:38 1019 30.09 848 25.04 10.5 50.8 72 5.7 42.3 10.85 0.427
13:39 1019 30.09 848 25.04 10.4 50.7 69 4.9 40.8 10.81 0.426
13:40 1019 30.09 848 25.04 10.3 50.6 72 5.4 41.8 10.72 0.422
13:41 1019 30.09 848 25.04 10.3 50.5 72 5.4 41.7 10.73 0.422
13:42 1019 30.09 848 25.04 10.2 50.4 71 5.3 41.6 10.66 0.42
13:43 1019 30.09 848 25.04 10.1 50.2 70 5 41 10.55 0.415
13:44 1019 30.09 848 25.04 10 50.1 72 5.3 41.6 10.48 0.413
13:45 1019 30.09 848 25.04 10 49.9 73 5.3 41.6 10.39 0.409
13:46 1019 30.09 848 25.04 9.9 49.9 70 4.8 40.6 10.34 0.407
13:47 1019 30.09 848 25.04 9.8 49.7 70 4.7 40.4 10.29 0.405
13:48 1019 30.09 848 25.04 9.8 49.6 72 5 41.1 10.22 0.402
13:49 1019 30.09 848 25.04 9.8 49.7 72 5.1 41.1 10.23 0.403
13:50 1019 30.09 848 25.04 9.8 49.6 71 4.8 40.7 10.21 0.402
13:51 1019 30.09 848 25.04 9.8 49.6 74 5.4 41.6 10.21 0.402
13:52 1019 30.09 848 25.04 9.8 49.6 74 5.3 41.6 10.2 0.402
13:53 1019 30.09 848 25.04 9.8 49.6 71 4.8 40.7 10.19 0.401
13:54 1019 30.09 848 25.04 9.8 49.6 72 5 41.1 10.18 0.401
13:55 1019 30.09 848 25.04 9.7 49.4 73 5.1 41.2 10.11 0.398
13:56 1019 30.09 848 25.04 9.6 49.3 74 5.2 41.4 10.04 0.395
13:57 1019 30.09 848 25.04 9.5 49.1 75 5.3 41.5 9.92 0.391
13:58 1019 30.09 848 25.04 9.4 48.9 74 5 41.1 9.83 0.387
13:59 1019 30.09 848 25.04 9.4 48.9 77 5.5 42 9.75 0.384
14:00 1019 30.09 848 25.04 9.3 48.7 77 5.4 41.8 9.71 0.382
14:01 1019 30.09 848 25.04 9.2 48.5 79 5.7 42.3 9.62 0.379
14:02 1019 30.09 848 25.04 9.1 48.3 78 5.5 41.9 9.55 0.376
14:03 1019 30.09 848 25.04 9 48.1 73 4.4 39.9 9.36 0.369
14:04 1019 30.09 848 25.04 8.9 48 73 4.3 39.7 9.28 0.365
14:05 1019 30.09 848 25.04 8.9 47.9 72 4 39.3 9.29 0.366
14:06 1019 30.09 848 25.04 8.9 48.1 79 5.4 41.8 9.33 0.367
14:07 1019 30.09 848 25.04 8.9 48.1 81 5.9 42.7 9.41 0.37
14:08 1019 30.09 848 25.04 8.9 48.1 85 6.5 43.8 9.48 0.373
14:09 1019 30.09 848 25.04 8.7 47.7 85 6.3 43.4 9.32 0.367
14:10 1019 30.09 848 25.04 8.6 47.5 86 6.3 43.4 9.23 0.363
14:11 1019 30.09 848 25.04 8.5 47.4 87 6.5 43.7 9.11 0.359
14:12 1019 30.09 848 25.04 8.5 47.3 85 6.1 43 9.03 0.356
14:13 1019 30.09 848 25.04 8.5 47.2 81 5.4 41.8 8.94 0.352
14:14 1019 30.09 848 25.04 8.5 47.2 81 5.5 41.9 8.93 0.352
14:15 1019 30.09 848 25.04 8.5 47.3 82 5.5 41.9 8.9 0.35
14:16 1019 30.09 848 25.04 8.5 47.2 81 5.4 41.8 8.9 0.35
14:17 1019 30.09 848 25.04 8.5 47.2 82 5.6 42 8.91 0.351
14:18 1019 30.09 848 25.04 8.5 47.3 83 5.8 42.5 8.91 0.351
14:19 1019 30.09 848 25.04 8.5 47.3 83 5.9 42.6 8.94 0.352
14:20 1019 30.09 848 25.04 8.5 47.4 84 6 42.8 8.99 0.354
14:21 1019 30.09 848 25.04 8.6 47.4 83 5.8 42.4 8.98 0.354
14:22 1019 30.09 848 25.04 8.4 47.1 82 5.6 42 8.9 0.35
14:23 1019 30.09 848 25.04 8.2 46.8 84 5.7 42.2 8.72 0.343
14:24 1019 30.09 848 25.04 8.1 46.5 85 5.7 42.3 8.55 0.337
14:25 1019 30.09 848 25.04 7.9 46.2 87 5.9 42.6 8.4 0.331
14:26 1019 30.09 848 25.04 7.8 46.1 88 6 42.7 8.36 0.329
14:27 1019 30.09 848 25.04 7.8 46.1 90 6.2 43.2 8.26 0.325
14:28 1019 30.09 848 25.04 7.8 46 90 6.3 43.4 8.28 0.326
14:29 1019 30.09 848 25.04 7.8 46.1 89 6.1 42.9 8.28 0.326
14:30 1019 30.09 848 25.04 7.8 46 90 6.2 43.2 8.27 0.326
14:31 1019 30.09 848 25.04 7.7 45.9 90 6.2 43.1 8.2 0.323
14:32 1019 30.09 848 25.04 7.7 45.9 89 6.1 42.9 8.1 0.319
14:33 1019 30.09 848 25.04 7.7 45.8 90 6.2 43.1 8.15 0.321
14:34 1019 30.09 848 25.04 7.7 45.8 91 6.2 43.2 8.07 0.318
14:35 1019 30.09 848 25.04 7.6 45.8 91 6.3 43.3 8.03 0.316
14:36 1019 30.09 848 25.04 7.6 45.7 90 6.1 43 8.06 0.317
14:37 1019 30.09 848 25.04 7.6 45.6 91 6.2 43.1 7.94 0.313
14:38 1019 30.09 848 25.04 7.6 45.6 91 6.2 43.2 7.97 0.314
14:39 1019 30.09 848 25.04 7.5 45.6 91 6.2 43.2 7.92 0.312
14:40 1019 30.09 848 25.04 7.5 45.5 92 6.3 43.4 7.92 0.312
14:41 1019 30.09 848 25.04 7.5 45.4 92 6.3 43.3 7.9 0.311
14:42 1019 30.09 848 25.04 7.4 45.4 92 6.3 43.3 7.85 0.309
14:43 1019 30.09 848 25.04 7.4 45.3 92 6.1 43 7.81 0.307
14:44 1019 30.09 848 25.04 7.3 45.1 92 6.1 42.9 7.7 0.303
14:45 1019 30.09 848 25.04 7.3 45.1 93 6.1 43 7.68 0.302
14:46 1019 30.09 848 25.04 7.2 45 92 6 42.8 7.6 0.299
14:47 1019 30.09 848 25.04 7.2 44.9 92 6 42.8 7.56 0.298
14:48 1019 30.09 848 25.04 7.2 44.9 93 6.1 43 7.58 0.298
14:49 1019 30.09 848 25.04 7.2 44.9 92 5.9 42.6 7.53 0.296
14:50 1019 30.09 848 25.04 7.1 44.8 91 5.7 42.3 7.45 0.293
14:51 1019 30.09 848 25.04 7.1 44.7 91 5.7 42.3 7.42 0.292
14:52 1019 30.09 848 25.04 7 44.7 91 5.6 42.1 7.37 0.29
14:53 1019 30.09 848 25.04 7 44.6 91 5.7 42.2 7.39 0.291
14:54 1019 30.09 848 25.04 7 44.6 92 5.8 42.4 7.36 0.29
14:55 1019 30.09 848 25.04 7 44.6 91 5.7 42.3 7.41 0.292
14:56 1019 30.09 848 25.04 7 44.6 92 5.7 42.3 7.38 0.291
14:57 1019 30.09 848 25.04 7 44.6 92 5.8 42.5 7.4 0.291
14:58 1019 30.09 848 25.04 7 44.7 90 5.5 41.9 7.44 0.293
14:59 1019 30.09 848 25.04 7.1 44.7 91 5.7 42.3 7.43 0.293
15:00 1019 30.09 848 25.04 7.1 44.7 91 5.6 42.1 7.46 0.294
15:01 1019 30.09 848 25.04 7.1 44.8 90 5.6 42.1 7.45 0.293
15:02 1019 30.09 848 25.04 7.1 44.8 91 5.7 42.3 7.43 0.293
15:03 1019 30.09 848 25.04 7.1 44.8 91 5.8 42.4 7.47 0.294
15:04 1019 30.09 848 25.04 7.1 44.8 92 5.9 42.7 7.5 0.295
15:05 1019 30.09 848 25.04 7.1 44.8 92 5.9 42.7 7.52 0.296
15:06 1019 30.09 848 25.04 7.1 44.8 93 6.1 42.9 7.49 0.295
15:07 1019 30.09 848 25.04 7.1 44.8 93 6 42.8 7.49 0.295
15:08 1019 30.09 848 25.04 7.1 44.8 92 5.9 42.7 7.45 0.293
15:09 1019 30.09 848 25.04 7.1 44.7 93 6 42.7 7.45 0.293
15:10 1019 30.09 848 25.04 7.1 44.7 93 6 42.9 7.46 0.294
15:11 1019 30.09 848 25.04 7.1 44.7 93 6.1 42.9 7.46 0.294
15:12 1019 30.09 848 25.04 7 44.6 93 5.9 42.7 7.43 0.293
15:13 1019 30.09 848 25.04 7 44.6 94 6 42.9 7.38 0.291
15:14 1019 30.09 848 25.04 7 44.6 93 6 42.7 7.37 0.29
15:15 1019 30.09 848 25.04 7 44.7 93 6 42.8 7.37 0.29
15:16 1019 30.09 848 25.04 7 44.6 93 6 42.8 7.39 0.291
15:17 1019 30.09 848 25.04 7 44.6 94 6 42.8 7.43 0.293
15:18 1019 30.09 848 25.04 7 44.6 94 6 42.9 7.4 0.291
15:19 1019 30.09 848 25.04 7 44.6 94 6.1 43 7.38 0.291
15:20 1019 30.09 848 25.04 7 44.6 94 6.1 42.9 7.38 0.291
15:21 1019 30.09 848 25.04 7 44.6 94 6.1 42.9 7.35 0.289
15:22 1019 30.09 848 25.04 7 44.6 93 6 42.8 7.33 0.289
15:23 1019 30.09 848 25.04 7 44.6 93 6 42.8 7.31 0.288
15:24 1019 30.09 848 25.04 7 44.5 93 6 42.7 7.32 0.288
15:25 1019 30.09 848 25.04 6.9 44.5 93 5.8 42.5 7.31 0.288
15:26 1019 30.09 848 25.04 6.9 44.4 92 5.7 42.3 7.24 0.285
15:27 1019 30.09 849 25.07 6.9 44.4 92 5.7 42.3 7.25 0.285
15:28 1019 30.09 848 25.04 6.9 44.4 92 5.7 42.2 7.22 0.284
15:29 1019 30.09 849 25.07 6.9 44.4 92 5.6 42.1 7.23 0.285
15:30 1019 30.09 849 25.07 6.8 44.3 91 5.5 41.9 7.21 0.284
15:31 1019 30.09 849 25.07 6.8 44.3 92 5.6 42 7.21 0.284
15:32 1019 30.09 849 25.07 6.9 44.3 91 5.4 41.8 7.15 0.281
15:33 1019 30.09 849 25.07 6.9 44.3 91 5.5 41.9 7.17 0.282
15:34 1019 30.09 849 25.07 6.9 44.3 92 5.6 42.1 7.16 0.282
15:35 1019 30.09 849 25.07 6.8 44.3 92 5.6 42 7.22 0.284
15:36 1019 30.09 849 25.07 6.8 44.3 91 5.4 41.7 7.17 0.282
15:37 1019 30.09 849 25.07 6.8 44.3 90 5.3 41.6 7.16 0.282
15:38 1019 30.09 849 25.07 6.8 44.2 91 5.4 41.7 7.15 0.281
15:39 1019 30.09 849 25.07 6.8 44.2 91 5.3 41.6 7.09 0.279
15:40 1019 30.09 849 25.07 6.7 44.1 91 5.3 41.6 7.1 0.28
15:41 1019 30.09 849 25.07 6.7 44 91 5.3 41.5 7.03 0.277
15:42 1019 30.09 849 25.07 6.7 44 91 5.4 41.7 7.05 0.278
15:43 1019 30.09 849 25.07 6.7 44 91 5.3 41.6 7.08 0.279
15:44 1019 30.09 849 25.07 6.7 44 91 5.3 41.6 7.05 0.278
15:45 1019 30.09 849 25.07 6.7 44 91 5.3 41.6 7.03 0.277
15:46 1019 30.09 849 25.07 6.7 44.1 92 5.5 41.8 7.12 0.28
15:47 1019 30.09 849 25.07 6.7 44 90 5.2 41.4 7.07 0.278
15:48 1019 30.09 849 25.07 6.7 44.1 90 5.3 41.5 7.09 0.279
15:49 1019 30.09 849 25.07 6.8 44.2 90 5.2 41.4 7.11 0.28
15:50 1020 30.12 849 25.07 6.8 44.2 91 5.4 41.7 7.16 0.282
15:51 1020 30.12 849 25.07 6.8 44.2 90 5.3 41.5 7.18 0.283
15:52 1020 30.12 849 25.07 6.8 44.2 90 5.3 41.5 7.16 0.282
15:53 1020 30.12 849 25.07 6.8 44.2 91 5.4 41.8 7.22 0.284
15:54 1020 30.12 849 25.07 6.8 44.3 91 5.5 41.9 7.23 0.285
15:55 1020 30.12 849 25.07 6.9 44.3 90 5.4 41.7 7.25 0.285
15:56 1020 30.12 849 25.07 6.9 44.4 90 5.4 41.7 7.26 0.286
15:57 1020 30.12 849 25.07 6.9 44.4 89 5.3 41.5 7.26 0.286
15:58 1020 30.12 849 25.07 6.9 44.4 90 5.5 41.8 7.32 0.288
15:59 1020 30.12 849 25.07 6.9 44.5 91 5.6 42 7.34 0.289
16:00 1020 30.12 849 25.07 7 44.5 90 5.4 41.6 7.32 0.288
16:01 1020 30.12 849 25.07 7 44.6 89 5.4 41.7 7.35 0.289
16:02 1020 30.12 849 25.07 7 44.6 89 5.4 41.7 7.36 0.29
16:03 1020 30.12 849 25.07 7 44.5 90 5.4 41.7 7.34 0.289
16:04 1020 30.12 849 25.07 6.9 44.4 89 5.2 41.3 7.29 0.287
16:05 1020 30.12 849 25.07 6.8 44.3 90 5.4 41.7 7.24 0.285
16:06 1020 30.12 849 25.07 6.8 44.2 91 5.4 41.7 7.2 0.283
16:07 1020 30.12 849 25.07 6.7 44.1 90 5.3 41.5 7.15 0.281
16:08 1020 30.12 849 25.07 6.7 44 90 5.2 41.3 7.06 0.278
16:09 1020 30.12 849 25.07 6.6 43.9 91 5.2 41.4 7 0.276
16:10 1020 30.12 849 25.07 6.5 43.8 92 5.3 41.5 6.967 0.274
16:11 1020 30.12 849 25.07 6.5 43.7 92 5.2 41.4 6.927 0.273
16:12 1020 30.12 849 25.07 6.4 43.6 92 5.2 41.4 6.848 0.27
16:13 1020 30.12 849 25.07 6.3 43.4 92 5.2 41.4 6.758 0.266
16:14 1020 30.12 849 25.07 6.3 43.4 92 5.2 41.3 6.747 0.266
16:15 1020 30.12 849 25.07 6.3 43.4 93 5.2 41.3 6.696 0.264
16:16 1020 30.12 849 25.07 6.3 43.4 93 5.2 41.4 6.669 0.263
16:17 1020 30.12 849 25.07 6.3 43.3 93 5.2 41.4 6.68 0.263
16:18 1020 30.12 849 25.07 6.3 43.3 93 5.2 41.4 6.714 0.264
16:19 1020 30.12 849 25.07 6.3 43.3 93 5.3 41.6 6.744 0.266
16:20 1020 30.12 849 25.07 6.3 43.3 94 5.3 41.6 6.704 0.264
16:21 1020 30.12 849 25.07 6.3 43.4 94 5.4 41.7 6.738 0.265
16:22 1020 30.12 849 25.07 6.4 43.4 93 5.3 41.6 6.716 0.264
16:23 1020 30.12 849 25.07 6.3 43.4 93 5.3 41.6 6.699 0.264
16:24 1020 30.12 849 25.07 6.4 43.5 93 5.4 41.7 6.756 0.266
16:25 1020 30.12 849 25.07 6.4 43.5 94 5.4 41.7 6.796 0.268
16:26 1020 30.12 849 25.07 6.5 43.6 93 5.4 41.8 6.83 0.269
16:27 1020 30.12 849 25.07 6.5 43.7 93 5.5 41.9 6.892 0.271
16:28 1020 30.12 849 25.07 6.5 43.8 93 5.4 41.7 6.898 0.272
16:29 1020 30.12 849 25.07 6.5 43.8 92 5.3 41.6 6.881 0.271
16:30 1020 30.12 849 25.07 6.6 43.8 91 5.3 41.5 6.904 0.272
16:31 1020 30.12 849 25.07 6.6 43.8 92 5.3 41.6 6.915 0.272
16:32 1020 30.12 849 25.07 6.6 43.8 91 5.3 41.5 6.921 0.272
16:33 1020 30.12 849 25.07 6.5 43.8 91 5.2 41.3 6.881 0.271
16:34 1020 30.12 849 25.07 6.5 43.7 91 5.1 41.2 6.831 0.269
16:35 1020 30.12 849 25.07 6.5 43.7 92 5.4 41.7 6.904 0.272
16:36 1020 30.12 849 25.07 6.6 43.8 92 5.4 41.8 6.984 0.275
16:37 1020 30.12 849 25.07 6.6 43.9 92 5.4 41.7 6.972 0.274
16:38 1020 30.12 849 25.07 6.6 43.9 92 5.3 41.6 6.984 0.275
16:39 1020 30.12 849 25.07 6.6 43.9 90 5.1 41.2 6.95 0.274
16:40 1020 30.12 849 25.07 6.6 43.9 91 5.2 41.3 6.978 0.275
16:41 1020 30.12 849 25.07 6.6 43.9 89 5 40.9 6.99 0.275
16:42 1020 30.12 849 25.07 6.6 43.9 89 5 41 6.973 0.275
16:43 1020 30.12 849 25.07 6.6 43.9 89 4.9 40.9 6.984 0.275
16:44 1020 30.12 849 25.07 6.7 44 89 5 41 7.02 0.276
16:45 1020 30.12 849 25.07 6.7 44.1 89 5.1 41.2 7.04 0.277
16:46 1020 30.12 849 25.07 6.7 44 89 5.1 41.1 7.04 0.277
16:47 1020 30.12 849 25.07 6.7 44.1 90 5.2 41.3 7.08 0.279
16:48 1020 30.12 849 25.07 6.7 44.1 89 5.1 41.2 7.09 0.279
16:49 1020 30.12 849 25.07 6.7 44.1 89 5 41 7.04 0.277
16:50 1020 30.12 849 25.07 6.8 44.2 88 5 41 7.13 0.281
16:51 1020 30.12 849 25.07 6.8 44.2 89 5.1 41.1 7.06 0.278
16:52 1020 30.12 850 25.1 6.7 44.1 89 5.1 41.1 7.13 0.281
16:53 1020 30.12 850 25.1 6.7 44.1 89 5.1 41.1 7.09 0.279
16:54 1020 30.12 850 25.1 6.7 44.1 89 5.1 41.1 7.1 0.28
16:55 1020 30.12 850 25.1 6.7 44 89 5 40.9 7.06 0.278
16:56 1020 30.12 850 25.1 6.7 44 90 5.1 41.2 7.01 0.276
16:57 1020 30.12 850 25.1 6.6 44 90 5.1 41.1 7.02 0.276
16:58 1020 30.12 850 25.1 6.6 43.9 89 5 41 7 0.276
16:59 1020 30.12 850 25.1 6.6 43.9 89 5 40.9 6.973 0.275
17:00 1020 30.12 850 25.1 6.6 43.9 90 5 41 6.917 0.272
17:01 1020 30.12 850 25.1 6.6 43.9 90 5 41 6.95 0.274
17:02 1020 30.12 850 25.1 6.6 43.9 88 4.8 40.7 6.984 0.275
17:03 1020 30.12 850 25.1 6.6 43.9 89 5 41 6.939 0.273
17:04 1020 30.12 850 25.1 6.6 43.9 88 4.8 40.6 6.945 0.273
17:05 1020 30.12 850 25.1 6.6 43.9 89 4.9 40.8 6.945 0.273
17:06 1020 30.12 850 25.1 6.6 43.9 89 5 41 6.99 0.275
17:07 1020 30.12 850 25.1 6.6 43.9 89 4.9 40.8 7.02 0.276
17:08 1020 30.12 850 25.1 6.6 43.9 88 4.8 40.7 6.973 0.275
17:09 1020 30.12 850 25.1 6.6 43.9 90 5.1 41.2 6.979 0.275
17:10 1020 30.12 850 25.1 6.6 43.8 90 5 41 6.962 0.274
17:11 1020 30.12 850 25.1 6.5 43.7 90 5 41 6.911 0.272
17:12 1020 30.12 850 25.1 6.5 43.7 91 5.1 41.2 6.9 0.272
17:13 1020 30.12 850 25.1 6.5 43.7 91 5.1 41.2 6.877 0.271
17:14 1020 30.12 850 25.1 6.4 43.6 90 5 40.9 6.843 0.269
17:15 1020 30.12 850 25.1 6.4 43.5 91 5 41 6.832 0.269
17:16 1020 30.12 850 25.1 6.4 43.6 91 5.1 41.1 6.832 0.269
17:17 1020 30.12 850 25.1 6.4 43.6 92 5.2 41.4 6.854 0.27
17:18 1020 30.12 850 25.1 6.5 43.6 93 5.4 41.7 6.928 0.273
17:19 1020 30.12 850 25.1 6.6 43.8 92 5.3 41.6 6.934 0.273
17:20 1020 30.12 850 25.1 6.6 43.8 91 5.2 41.3 6.928 0.273
17:21 1020 30.12 850 25.1 6.5 43.7 92 5.3 41.5 6.922 0.273
17:22 1020 30.12 850 25.1 6.5 43.8 90 5.1 41.1 6.968 0.274
17:23 1020 30.12 850 25.1 6.5 43.8 92 5.3 41.5 6.939 0.273
17:24 1020 30.12 850 25.1 6.6 43.9 92 5.5 41.8 7.06 0.278
17:25 1020 30.12 850 25.1 6.7 44 91 5.3 41.6 7.05 0.278
17:26 1020 30.12 850 25.1 6.7 44.1 92 5.6 42.1 7.15 0.281
17:27 1020 30.12 850 25.1 6.8 44.3 92 5.7 42.2 7.24 0.285
17:28 1020 30.12 850 25.1 6.9 44.5 92 5.7 42.3 7.34 0.289
17:29 1020 30.12 850 25.1 7.1 44.8 91 5.7 42.2 7.47 0.294
17:30 1020 30.12 850 25.1 7.2 44.9 90 5.6 42.2 7.6 0.299
17:31 1020 30.12 850 25.1 7.3 45.2 92 6.1 42.9 7.73 0.304
17:32 1020 30.12 850 25.1 7.5 45.5 90 5.9 42.7 7.84 0.309
17:33 1020 30.12 850 25.1 7.6 45.6 90 6 42.8 7.95 0.313
17:34 1020 30.12 850 25.1 7.7 45.8 89 6 42.8 8.06 0.317
17:35 1020 30.12 850 25.1 7.8 46 88 5.9 42.6 8.12 0.32
17:36 1020 30.12 850 25.1 7.8 46 88 5.8 42.5 8.14 0.32
17:37 1020 30.12 850 25.1 7.8 46 87 5.8 42.5 8.17 0.322
17:38 1020 30.12 850 25.1 7.8 46 85 5.4 41.8 8.13 0.32
17:39 1020 30.12 850 25.1 7.8 46 87 5.8 42.4 8.16 0.321
17:40 1020 30.12 850 25.1 7.8 46 87 5.8 42.5 8.15 0.321
17:41 1020 30.12 850 25.1 7.8 46 86 5.6 42.1 8.16 0.321
17:42 1020 30.12 850 25.1 7.8 46.1 87 5.8 42.4 8.21 0.323
17:43 1020 30.12 850 25.1 7.9 46.2 85 5.6 42.1 8.29 0.326
17:44 1020 30.12 850 25.1 7.9 46.1 87 5.8 42.4 8.3 0.327
17:45 1020 30.12 850 25.1 7.9 46.3 85 5.5 41.9 8.34 0.328
17:46 1020 30.12 850 25.1 8 46.4 84 5.4 41.7 8.33 0.328
17:47 1021 30.15 850 25.1 7.9 46.3 83 5.2 41.4 8.3 0.327
17:48 1020 30.12 850 25.1 7.9 46.3 85 5.6 42 8.39 0.33
17:49 1020 30.12 850 25.1 8 46.3 86 5.7 42.3 8.38 0.33
17:50 1021 30.15 850 25.1 8 46.3 85 5.7 42.2 8.37 0.33
17:51 1021 30.15 850 25.1 8 46.5 83 5.4 41.7 8.45 0.333
17:52 1020 30.12 850 25.1 8 46.4 87 6 42.8 8.42 0.331
17:53 1020 30.12 850 25.1 8.1 46.5 85 5.7 42.2 8.5 0.335
17:54 1020 30.12 850 25.1 8.1 46.5 84 5.6 42.1 8.48 0.334
17:55 1020 30.12 850 25.1 8.1 46.7 87 6.2 43.1 8.59 0.338
17:56 1020 30.12 850 25.1 8.2 46.8 87 6.2 43.1 8.69 0.342
17:57 1020 30.12 850 25.1 8.3 46.9 85 5.8 42.5 8.69 0.342
17:58 1020 30.12 850 25.1 8.2 46.7 85 5.9 42.6 8.63 0.34
17:59 1020 30.12 850 25.1 8.1 46.6 85 5.7 42.3 8.55 0.337
18:00 1020 30.12 850 25.1 8.1 46.6 86 5.9 42.6 8.54 0.336
18:01 1020 30.12 850 25.1 8.1 46.6 86 5.8 42.5 8.57 0.337
18:02 1020 30.12 850 25.1 8.1 46.6 87 6 42.9 8.61 0.339
18:03 1020 30.12 850 25.1 8.2 46.7 85 5.8 42.4 8.65 0.341
18:04 1020 30.12 850 25.1 8.2 46.8 87 6.2 43.1 8.72 0.343
18:05 1020 30.12 850 25.1 8.2 46.8 86 6 42.8 8.7 0.343
18:06 1020 30.12 850 25.1 8.3 46.9 87 6.1 43.1 8.74 0.344
18:07 1020 30.12 850 25.1 8.2 46.7 85 5.9 42.6 8.73 0.344
18:08 1020 30.12 850 25.1 8.2 46.7 87 6.2 43.1 8.66 0.341
18:09 1020 30.12 850 25.1 8.2 46.7 86 6 42.8 8.68 0.342
18:10 1020 30.12 850 25.1 8.1 46.7 86 5.9 42.6 8.66 0.341
18:11 1021 30.15 850 25.1 8.2 46.7 88 6.4 43.5 8.69 0.342
18:12 1021 30.15 850 25.1 8.4 47.1 87 6.4 43.5 8.89 0.35
18:13 1021 30.15 850 25.1 8.5 47.3 85 6.2 43.2 8.98 0.354
18:14 1021 30.15 850 25.1 8.5 47.4 85 6.1 43.1 9.05 0.356
18:15 1021 30.15 850 25.1 8.5 47.3 84 5.9 42.6 8.98 0.354
18:16 1021 30.15 850 25.1 8.4 47.1 86 6.2 43.1 8.97 0.353
18:17 1021 30.15 850 25.1 8.4 47.2 86 6.3 43.4 8.99 0.354
18:18 1021 30.15 850 25.1 8.6 47.4 85 6.1 43.1 9.06 0.357
18:19 1021 30.15 850 25.1 8.6 47.5 85 6.3 43.4 9.1 0.358
18:20 1021 30.15 850 25.1 8.6 47.6 86 6.4 43.5 9.21 0.363
18:21 1021 30.15 850 25.1 8.6 47.6 84 6.1 43 9.14 0.36
18:22 1021 30.15 850 25.1 8.6 47.5 84 6 42.8 9.1 0.358
18:23 1021 30.15 850 25.1 8.6 47.4 85 6.2 43.1 9.06 0.357
18:24 1021 30.15 850 25.1 8.5 47.3 82 5.7 42.2 8.99 0.354
18:25 1021 30.15 850 25.1 8.5 47.2 83 5.7 42.3 8.93 0.352
18:26 1021 30.15 850 25.1 8.4 47.1 84 5.8 42.4 8.93 0.352
18:27 1021 30.15 850 25.1 8.4 47.1 83 5.7 42.2 8.89 0.35
18:28 1021 30.15 850 25.1 8.4 47.1 85 6.1 42.9 8.85 0.348
18:29 1021 30.15 850 25.1 8.4 47.1 85 6 42.8 8.86 0.349
18:30 1021 30.15 850 25.1 8.4 47.1 85 6 42.9 8.87 0.349
18:31 1021 30.15 850 25.1 8.4 47 86 6.1 43 8.84 0.348
18:32 1021 30.15 850 25.1 8.4 47 85 6 42.8 8.81 0.347
18:33 1021 30.15 850 25.1 8.3 47 84 5.8 42.4 8.76 0.345
18:34 1021 30.15 850 25.1 8.3 46.9 85 6 42.8 8.7 0.343
18:35 1021 30.15 850 25.1 8.3 46.9 83 5.6 42.1 8.7 0.343
18:36 1021 30.15 850 25.1 8.2 46.8 86 6 42.9 8.67 0.341
18:37 1021 30.15 850 25.1 8.2 46.8 85 5.9 42.6 8.68 0.342
18:38 1021 30.15 850 25.1 8.2 46.7 85 5.7 42.3 8.6 0.339
18:39 1021 30.15 850 25.1 8.2 46.7 85 5.9 42.6 8.59 0.338
18:40 1021 30.15 850 25.1 8.2 46.7 86 5.9 42.6 8.57 0.337
18:41 1021 30.15 850 25.1 8.1 46.7 86 5.9 42.7 8.54 0.336
18:42 1021 30.15 850 25.1 8.1 46.6 86 5.9 42.6 8.57 0.337
18:43 1021 30.15 850 25.1 8.1 46.6 87 6.1 43 8.54 0.336
18:44 1021 30.15 850 25.1 8.1 46.6 86 5.9 42.6 8.53 0.336
18:45 1021 30.15 850 25.1 8.1 46.5 86 5.8 42.5 8.5 0.335
18:46 1021 30.15 850 25.1 8.1 46.6 86 5.9 42.6 8.47 0.333
18:47 1021 30.15 850 25.1 8.1 46.6 87 6 42.8 8.48 0.334
18:48 1021 30.15 850 25.1 8.1 46.5 87 6.1 43 8.52 0.335
18:49 1021 30.15 850 25.1 8.1 46.5 87 6 42.9 8.45 0.333
18:50 1021 30.15 850 25.1 8.1 46.5 87 6 42.9 8.46 0.333
18:51 1021 30.15 850 25.1 8.1 46.5 88 6.2 43.1 8.43 0.332
18:52 1021 30.15 850 25.1 8 46.4 87 6.1 42.9 8.39 0.33
18:53 1021 30.15 850 25.1 8 46.4 87 6 42.8 8.38 0.33
18:54 1021 30.15 850 25.1 8 46.4 85 5.7 42.3 8.34 0.328
18:55 1021 30.15 850 25.1 8 46.5 84 5.4 41.8 8.33 0.328
18:56 1021 30.15 850 25.1 8 46.4 85 5.6 42.1 8.36 0.329
18:57 1021 30.15 850 25.1 8 46.4 83 5.2 41.4 8.34 0.328
18:58 1021 30.15 850 25.1 8 46.4 83 5.2 41.4 8.35 0.329
18:59 1021 30.15 850 25.1 8 46.4 84 5.5 41.9 8.36 0.329
19:00 1021 30.15 850 25.1 8 46.3 81 5 41 8.36 0.329
19:01 1021 30.15 850 25.1 8 46.4 83 5.2 41.4 8.34 0.328
19:02 1021 30.15 850 25.1 8 46.4 85 5.6 42 8.35 0.329
19:03 1021 30.15 850 25.1 8 46.3 85 5.6 42.1 8.33 0.328
19:04 1021 30.15 850 25.1 7.9 46.2 85 5.6 42 8.31 0.327
19:05 1021 30.15 850 25.1 7.9 46.2 84 5.4 41.7 8.26 0.325
19:06 1021 30.15 850 25.1 8 46.3 84 5.4 41.7 8.27 0.326
19:07 1021 30.15 850 25.1 7.9 46.3 85 5.5 42 8.3 0.327
19:08 1021 30.15 850 25.1 7.9 46.3 84 5.4 41.7 8.3 0.327
19:09 1021 30.15 850 25.1 8 46.3 85 5.5 42 8.3 0.327
19:10 1021 30.15 850 25.1 7.9 46.3 86 5.8 42.4 8.34 0.328
19:11 1021 30.15 850 25.1 7.9 46.3 87 5.8 42.5 8.29 0.326
19:12 1021 30.15 850 25.1 7.9 46.1 87 5.9 42.6 8.29 0.326
19:13 1021 30.15 850 25.1 7.8 46.1 85 5.5 41.8 8.19 0.322
19:14 1021 30.15 850 25.1 7.9 46.1 83 5.2 41.4 8.19 0.322
19:15 1021 30.15 850 25.1 7.9 46.2 83 5.1 41.2 8.21 0.323
19:16 1021 30.15 850 25.1 7.9 46.3 81 4.9 40.8 8.22 0.324
19:17 1021 30.15 850 25.1 7.9 46.3 81 4.9 40.8 8.3 0.327
19:18 1021 30.15 851 25.13 8 46.3 81 4.9 40.7 8.3 0.327
19:19 1021 30.15 851 25.13 7.9 46.2 81 4.9 40.8 8.27 0.326
19:20 1021 30.15 851 25.13 7.9 46.2 80 4.7 40.4 8.24 0.324
19:21 1021 30.15 851 25.13 7.8 46.1 78 4.3 39.7 8.2 0.323
19:22 1021 30.15 851 25.13 7.8 46.1 80 4.7 40.5 8.16 0.321
19:23 1021 30.15 851 25.13 7.8 46 81 4.7 40.5 8.14 0.32
19:24 1021 30.15 851 25.13 7.7 45.8 83 4.9 40.9 8.11 0.319
19:25 1021 30.15 851 25.13 7.6 45.7 82 4.8 40.7 8 0.315
19:26 1021 30.15 851 25.13 7.6 45.7 83 4.9 40.7 7.98 0.314
19:27 1021 30.15 851 25.13 7.6 45.6 83 4.9 40.8 7.94 0.313
19:28 1021 30.15 851 25.13 7.5 45.6 84 5 41 7.91 0.311
19:29 1021 30.15 851 25.13 7.5 45.5 84 5 40.9 7.89 0.311
19:30 1021 30.15 851 25.13 7.5 45.4 84 4.9 40.9 7.86 0.309
19:31 1021 30.15 851 25.13 7.5 45.4 82 4.7 40.4 7.85 0.309
19:32 1022 30.18 851 25.13 7.5 45.5 84 5 40.9 7.84 0.309
19:33 1022 30.18 851 25.13 7.5 45.5 84 5 40.9 7.87 0.31
19:34 1022 30.18 851 25.13 7.4 45.4 83 4.7 40.4 7.84 0.309
19:35 1022 30.18 851 25.13 7.4 45.4 83 4.7 40.4 7.82 0.308
19:36 1022 30.18 851 25.13 7.5 45.5 83 4.9 40.8 7.88 0.31
19:37 1022 30.18 851 25.13 7.4 45.4 81 4.3 39.8 7.84 0.309
19:38 1022 30.18 851 25.13 7.4 45.3 81 4.3 39.8 7.79 0.307
19:39 1022 30.18 851 25.13 7.4 45.3 82 4.5 40.1 7.75 0.305
19:40 1022 30.18 851 25.13 7.4 45.2 81 4.3 39.7 7.75 0.305
19:41 1022 30.18 851 25.13 7.3 45.1 79 3.9 39.1 7.64 0.301
19:42 1022 30.18 851 25.13 7.3 45.1 79 3.9 39.1 7.61 0.3
19:43 1022 30.18 851 25.13 7.2 45 80 4.1 39.3 7.57 0.298
19:44 1022 30.18 851 25.13 7.2 44.9 81 4.1 39.3 7.57 0.298
19:45 1022 30.18 851 25.13 7.1 44.8 80 4 39.1 7.53 0.296
19:46 1022 30.18 851 25.13 7.1 44.8 80 3.8 38.9 7.47 0.294
19:47 1022 30.18 851 25.13 7.1 44.8 81 4 39.2 7.49 0.295
19:48 1022 30.18 851 25.13 7.1 44.8 82 4.2 39.6 7.49 0.295
19:49 1022 30.18 851 25.13 7 44.7 82 4.1 39.4 7.41 0.292
19:50 1022 30.18 851 25.13 7 44.7 82 4.3 39.7 7.4 0.291
19:51 1022 30.18 851 25.13 7 44.6 81 4 39.2 7.39 0.291
19:52 1022 30.18 851 25.13 7 44.6 82 4.2 39.5 7.4 0.291
19:53 1022 30.18 851 25.13 7 44.5 82 4 39.3 7.32 0.288
19:54 1022 30.18 851 25.13 6.9 44.5 83 4.3 39.8 7.32 0.288
19:55 1022 30.18 851 25.13 6.9 44.3 83 4.2 39.6 7.28 0.287
19:56 1022 30.18 851 25.13 6.8 44.3 83 4.2 39.5 7.23 0.285
19:57 1022 30.18 851 25.13 6.8 44.2 84 4.4 39.9 7.19 0.283
19:58 1022 30.18 851 25.13 6.7 44.1 86 4.5 40.1 7.13 0.281
19:59 1022 30.18 851 25.13 6.7 44 85 4.3 39.8 7.1 0.28
20:00 1022 30.18 851 25.13 6.7 44 86 4.5 40.1 7.07 0.278
20:01 1022 30.18 851 25.13 6.6 44 86 4.5 40.1 7.06 0.278
20:02 1022 30.18 851 25.13 6.6 43.9 86 4.5 40.1 7 0.276
20:03 1022 30.18 851 25.13 6.6 43.9 87 4.6 40.3 7.05 0.278
20:04 1022 30.18 851 25.13 6.6 43.9 86 4.5 40.1 6.996 0.275
20:05 1022 30.18 851 25.13 6.6 43.9 87 4.6 40.3 7.02 0.276
20:06 1022 30.18 851 25.13 6.6 43.9 88 4.7 40.5 7.02 0.276
20:07 1022 30.18 851 25.13 6.6 43.9 88 4.8 40.6 7.04 0.277
20:08 1022 30.18 851 25.13 6.6 43.9 89 4.9 40.9 7.04 0.277
20:09 1022 30.18 851 25.13 6.7 44 90 5.2 41.3 7.06 0.278
20:10 1022 30.18 851 25.13 6.6 43.9 90 5 41.1 7.08 0.279
20:11 1022 30.18 851 25.13 6.6 43.9 90 5.1 41.1 7.02 0.276
20:12 1022 30.18 851 25.13 6.6 43.8 90 5.1 41.2 7.02 0.276
20:13 1022 30.18 851 25.13 6.6 43.8 90 5 41.1 6.973 0.275
20:14 1022 30.18 851 25.13 6.5 43.8 90 5.1 41.1 6.968 0.274
20:15 1022 30.18 852 25.16 6.5 43.8 90 5.1 41.1 6.939 0.273
20:16 1022 30.18 852 25.16 6.5 43.8 91 5.2 41.3 6.956 0.274
20:17 1022 30.18 852 25.16 6.5 43.7 91 5.1 41.2 6.894 0.271
20:18 1022 30.18 852 25.16 6.5 43.7 91 5.2 41.3 6.877 0.271
20:19 1022 30.18 852 25.16 6.5 43.6 91 5.1 41.2 6.894 0.271
20:20 1022 30.18 852 25.16 6.5 43.6 91 5.1 41.2 6.849 0.27
20:21 1022 30.18 852 25.16 6.5 43.6 91 5.1 41.2 6.849 0.27
20:22 1022 30.18 852 25.16 6.4 43.6 91 5 41 6.86 0.27
20:23 1022 30.18 852 25.16 6.4 43.6 90 4.9 40.8 6.804 0.268
20:24 1022 30.18 852 25.16 6.4 43.6 91 5.1 41.1 6.837 0.269
20:25 1022 30.18 852 25.16 6.4 43.6 91 5 41 6.809 0.268
20:26 1022 30.18 852 25.16 6.4 43.5 91 5 41.1 6.787 0.267
20:27 1022 30.18 852 25.16 6.4 43.5 90 4.9 40.7 6.741 0.265
20:28 1022 30.18 852 25.16 6.4 43.5 89 4.8 40.6 6.707 0.264
20:29 1022 30.18 852 25.16 6.4 43.4 90 4.8 40.7 6.741 0.265
20:30 1022 30.18 852 25.16 6.3 43.4 90 4.7 40.5 6.73 0.265
20:31 1022 30.18 852 25.16 6.3 43.4 90 4.8 40.7 6.685 0.263
20:32 1023 30.21 852 25.16 6.3 43.4 90 4.7 40.5 6.639 0.261
20:33 1022 30.18 852 25.16 6.3 43.3 91 4.9 40.8 6.645 0.262
20:34 1023 30.21 852 25.16 6.3 43.3 91 4.8 40.7 6.634 0.261
20:35 1023 30.21 852 25.16 6.2 43.2 90 4.7 40.4 6.583 0.259
20:36 1023 30.21 852 25.16 6.2 43.2 90 4.8 40.6 6.594 0.26
20:37 1023 30.21 852 25.16 6.2 43.1 91 4.8 40.6 6.572 0.259
20:38 1023 30.21 852 25.16 6.2 43.1 91 4.8 40.7 6.56 0.258
20:39 1023 30.21 852 25.16 6.1 43.1 91 4.8 40.6 6.504 0.256
20:40 1023 30.21 852 25.16 6.1 43 91 4.7 40.5 6.492 0.256
20:41 1023 30.21 852 25.16 6.1 43.1 91 4.8 40.6 6.447 0.254
20:42 1023 30.21 852 25.16 6.1 43 92 4.9 40.7 6.504 0.256
20:43 1023 30.21 852 25.16 6.1 43 91 4.8 40.6 6.532 0.257
20:44 1023 30.21 852 25.16 6.1 43 92 4.9 40.9 6.458 0.254
20:45 1023 30.21 852 25.16 6.1 42.9 92 4.8 40.7 6.441 0.254
20:46 1023 30.21 852 25.16 6.1 42.9 92 4.9 40.8 6.43 0.253
20:47 1023 30.21 852 25.16 6 42.9 92 4.9 40.8 6.43 0.253
20:48 1023 30.21 852 25.16 6 42.8 92 4.8 40.7 6.43 0.253
20:49 1023 30.21 852 25.16 6 42.8 92 4.8 40.7 6.34 0.25
20:50 1023 30.21 852 25.16 6 42.7 92 4.8 40.6 6.385 0.251
20:51 1023 30.21 852 25.16 5.9 42.7 92 4.8 40.6 6.311 0.248
20:52 1023 30.21 852 25.16 5.9 42.6 92 4.7 40.5 6.311 0.248
20:53 1023 30.21 852 25.16 5.9 42.6 92 4.7 40.4 6.215 0.245
20:54 1023 30.21 852 25.16 5.9 42.6 92 4.7 40.5 6.277 0.247
20:55 1023 30.21 852 25.16 5.9 42.6 92 4.6 40.4 6.249 0.246
20:56 1023 30.21 852 25.16 5.9 42.6 92 4.6 40.3 6.266 0.247
20:57 1023 30.21 852 25.16 5.9 42.6 92 4.6 40.3 6.232 0.245
20:58 1023 30.21 852 25.16 5.9 42.5 92 4.6 40.3 6.249 0.246
20:59 1023 30.21 852 25.16 5.8 42.5 92 4.6 40.2 6.187 0.244
21:00 1023 30.21 852 25.16 5.8 42.5 92 4.6 40.3 6.21 0.244
21:01 1023 30.21 852 25.16 5.8 42.5 92 4.6 40.3 6.17 0.243
21:02 1023 30.21 852 25.16 5.8 42.5 92 4.6 40.3 6.221 0.245
21:03 1023 30.21 852 25.16 5.8 42.5 92 4.6 40.4 6.193 0.244
21:04 1023 30.21 852 25.16 5.8 42.5 92 4.7 40.4 6.198 0.244
21:05 1023 30.21 852 25.16 5.8 42.4 92 4.7 40.4 6.21 0.244
21:06 1023 30.21 852 25.16 5.8 42.5 93 4.7 40.5 6.17 0.243
21:07 1023 30.21 852 25.16 5.8 42.5 93 4.8 40.6 6.226 0.245
21:08 1023 30.21 852 25.16 5.8 42.5 93 4.8 40.6 6.176 0.243
21:09 1023 30.21 852 25.16 5.8 42.4 93 4.7 40.5 6.176 0.243
21:10 1023 30.21 852 25.16 5.8 42.5 93 4.8 40.6 6.187 0.244
21:11 1023 30.21 852 25.16 5.8 42.4 93 4.8 40.6 6.17 0.243
21:12 1023 30.21 852 25.16 5.8 42.5 94 4.9 40.7 6.193 0.244
21:13 1023 30.21 852 25.16 5.8 42.4 94 4.9 40.8 6.204 0.244
21:14 1023 30.21 852 25.16 5.8 42.5 94 4.9 40.9 6.193 0.244
21:15 1023 30.21 852 25.16 5.8 42.5 94 5 40.9 6.198 0.244
21:16 1023 30.21 852 25.16 5.8 42.5 94 4.9 40.9 6.193 0.244
21:17 1023 30.21 852 25.16 5.8 42.5 94 5 40.9 6.21 0.244
21:18 1023 30.21 852 25.16 5.8 42.5 94 4.9 40.9 6.198 0.244
21:19 1023 30.21 852 25.16 5.8 42.5 94 5 40.9 6.243 0.246
21:20 1023 30.21 852 25.16 5.9 42.6 94 5 41 6.249 0.246
21:21 1023 30.21 852 25.16 5.8 42.5 94 5 41 6.243 0.246
21:22 1023 30.21 852 25.16 5.9 42.6 94 5.1 41.1 6.243 0.246
21:23 1023 30.21 852 25.16 5.9 42.5 94 5 41.1 6.272 0.247
21:24 1023 30.21 852 25.16 5.9 42.6 94 5 41 6.245 0.246
21:25 1023 30.21 852 25.16 5.9 42.5 94 5 41 6.222 0.245
21:26 1023 30.21 852 25.16 5.9 42.6 94 5 41 6.245 0.246
21:27 1023 30.21 852 25.16 5.9 42.6 94 5 41.1 6.211 0.245
21:28 1023 30.21 852 25.16 5.9 42.6 94 5.1 41.1 6.279 0.247
21:29 1023 30.21 852 25.16 5.9 42.6 94 5.1 41.1 6.262 0.247
21:30 1023 30.21 852 25.16 5.9 42.6 94 5 41.1 6.261 0.246
21:31 1023 30.21 852 25.16 5.9 42.5 94 5 41 6.261 0.246
21:32 1023 30.21 852 25.16 5.8 42.5 94 5 41 6.222 0.245
21:33 1023 30.21 852 25.16 5.9 42.6 94 5 41 6.263 0.247
21:34 1023 30.21 852 25.16 5.9 42.6 94 5 40.9 6.246 0.246
21:35 1023 30.21 852 25.16 5.9 42.6 94 5 40.9 6.235 0.245
21:36 1023 30.21 852 25.16 5.9 42.6 94 4.9 40.9 6.245 0.246
21:37 1023 30.21 852 25.16 5.9 42.5 94 5 40.9 6.2 0.244
21:38 1023 30.21 852 25.16 5.9 42.6 94 5 41 6.251 0.246
21:39 1023 30.21 852 25.16 5.9 42.5 94 5 41 6.258 0.246
21:40 1023 30.21 852 25.16 5.9 42.6 94 5 41.1 6.275 0.247
21:41 1023 30.21 852 25.16 5.9 42.6 94 5 41 6.23 0.245
21:42 1023 30.21 852 25.16 5.8 42.5 94 5 41 6.219 0.245
21:43 1023 30.21 852 25.16 5.8 42.5 94 4.9 40.9 6.197 0.244
21:44 1023 30.21 852 25.16 5.8 42.4 94 4.9 40.8 6.174 0.243
21:45 1023 30.21 852 25.16 5.8 42.4 94 4.9 40.8 6.146 0.242
21:46 1023 30.21 852 25.16 5.8 42.4 94 4.9 40.8 6.146 0.242
21:47 1023 30.21 852 25.16 5.8 42.4 94 4.8 40.7 6.113 0.241
21:48 1023 30.21 852 25.16 5.7 42.3 94 4.8 40.6 6.068 0.239
21:49 1023 30.21 852 25.16 5.7 42.3 94 4.8 40.6 6.085 0.24
21:50 1023 30.21 852 25.16 5.7 42.3 94 4.8 40.6 6.062 0.239
21:51 1023 30.21 852 25.16 5.7 42.2 94 4.8 40.6 6.063 0.239
21:52 1023 30.21 852 25.16 5.7 42.2 94 4.8 40.7 6.051 0.238
21:53 1023 30.21 852 25.16 5.6 42.2 95 4.8 40.7 6.029 0.237
21:54 1023 30.21 852 25.16 5.6 42.1 94 4.8 40.6 6.012 0.237
21:55 1023 30.21 852 25.16 5.6 42.1 94 4.7 40.5 6.006 0.236
21:56 1023 30.21 852 25.16 5.6 42.1 94 4.7 40.5 5.944 0.234
21:57 1023 30.21 852 25.16 5.6 42 94 4.7 40.5 5.973 0.235
21:58 1023 30.21 852 25.16 5.6 42.1 94 4.7 40.5 5.967 0.235
21:59 1023 30.21 852 25.16 5.6 42 94 4.7 40.4 5.945 0.234
22:00 1023 30.21 852 25.16 5.6 42.1 94 4.7 40.4 5.95 0.234
22:01 1023 30.21 852 25.16 5.6 42 94 4.6 40.4 5.911 0.233
22:02 1023 30.21 852 25.16 5.6 42 94 4.6 40.4 5.917 0.233
22:03 1023 30.21 852 25.16 5.6 42.1 94 4.7 40.5 5.917 0.233
22:04 1023 30.21 852 25.16 5.5 42 94 4.7 40.4 5.939 0.234
22:05 1023 30.21 852 25.16 5.5 42 94 4.7 40.5 5.917 0.233
22:06 1023 30.21 852 25.16 5.5 42 95 4.7 40.5 5.883 0.232
22:07 1023 30.21 852 25.16 5.5 42 94 4.7 40.5 5.889 0.232
22:08 1023 30.21 852 25.16 5.5 41.9 94 4.7 40.4 5.9 0.232
22:09 1023 30.21 852 25.16 5.5 41.9 94 4.7 40.4 5.917 0.233
22:10 1023 30.21 852 25.16 5.5 42 94 4.7 40.5 5.917 0.233
22:11 1023 30.21 852 25.16 5.5 42 94 4.7 40.5 5.911 0.233
22:12 1023 30.21 852 25.16 5.5 42 94 4.7 40.4 5.9 0.232
22:13 1023 30.21 852 25.16 5.5 42 94 4.7 40.5 5.889 0.232
22:14 1023 30.21 852 25.16 5.5 41.9 94 4.7 40.4 5.923 0.233
22:15 1023 30.21 852 25.16 5.5 41.9 95 4.7 40.5 5.889 0.232
22:16 1023 30.21 852 25.16 5.5 41.9 94 4.7 40.5 5.844 0.23
22:17 1023 30.21 852 25.16 5.5 42 94 4.7 40.5 5.906 0.233
22:18 1023 30.21 852 25.16 5.5 41.9 94 4.7 40.4 5.889 0.232
22:19 1023 30.21 852 25.16 5.5 41.9 94 4.7 40.5 5.9 0.232
22:20 1023 30.21 852 25.16 5.5 41.9 94 4.7 40.4 5.878 0.231
22:21 1023 30.21 852 25.16 5.5 42 94 4.7 40.4 5.855 0.231
22:22 1023 30.21 852 25.16 5.5 41.9 94 4.6 40.3 5.849 0.23
22:23 1023 30.21 852 25.16 5.5 41.9 94 4.6 40.3 5.866 0.231
22:24 1023 30.21 852 25.16 5.5 41.8 94 4.6 40.3 5.832 0.23
22:25 1023 30.21 852 25.16 5.5 41.9 94 4.7 40.4 5.844 0.23
22:26 1023 30.21 852 25.16 5.4 41.8 94 4.6 40.3 5.855 0.231
22:27 1023 30.21 852 25.16 5.5 41.8 94 4.6 40.3 5.849 0.23
22:28 1023 30.21 852 25.16 5.5 41.8 95 4.7 40.4 5.827 0.229
22:29 1023 30.21 853 25.19 5.5 41.8 95 4.7 40.4 5.828 0.229
22:30 1023 30.21 852 25.16 5.5 41.8 95 4.7 40.5 5.879 0.231
22:31 1023 30.21 852 25.16 5.5 41.8 95 4.7 40.5 5.862 0.231
22:32 1023 30.21 852 25.16 5.4 41.7 95 4.7 40.5 5.805 0.229
22:33 1023 30.21 852 25.16 5.5 41.8 95 4.8 40.6 5.834 0.23
22:34 1023 30.21 853 25.19 5.4 41.8 95 4.7 40.5 5.811 0.229
22:35 1023 30.21 852 25.16 5.4 41.8 95 4.7 40.5 5.822 0.229
22:36 1023 30.21 852 25.16 5.4 41.7 95 4.7 40.4 5.828 0.229
22:37 1023 30.21 853 25.19 5.4 41.8 95 4.7 40.5 5.85 0.23
22:38 1023 30.21 853 25.19 5.5 41.8 95 4.7 40.5 5.794 0.228
22:39 1023 30.21 853 25.19 5.5 41.8 95 4.8 40.6 5.833 0.23
22:40 1023 30.21 852 25.16 5.4 41.8 95 4.7 40.5 5.85 0.23
22:41 1023 30.21 852 25.16 5.5 41.8 95 4.8 40.6 5.856 0.231
22:42 1023 30.21 852 25.16 5.4 41.8 95 4.8 40.6 5.85 0.23
22:43 1023 30.21 852 25.16 5.5 41.8 96 4.8 40.7 5.862 0.231
22:44 1023 30.21 852 25.16 5.4 41.8 96 4.8 40.6 5.891 0.232
22:45 1023 30.21 852 25.16 5.5 41.9 96 4.8 40.7 5.874 0.231
22:46 1023 30.21 853 25.19 5.5 41.8 96 4.8 40.7 5.881 0.232
22:47 1023 30.21 853 25.19 5.5 41.9 96 4.9 40.7 5.864 0.231
22:48 1023 30.21 853 25.19 5.5 41.8 96 4.8 40.7 5.853 0.23
22:49 1023 30.21 853 25.19 5.5 41.9 96 4.8 40.7 5.836 0.23
22:50 1023 30.21 853 25.19 5.5 41.9 96 4.8 40.7 5.871 0.231
22:51 1023 30.21 853 25.19 5.5 41.9 96 4.8 40.7 5.854 0.23
22:52 1023 30.21 853 25.19 5.5 41.8 96 4.8 40.7 5.843 0.23
22:53 1023 30.21 853 25.19 5.5 41.8 96 4.8 40.7 5.871 0.231
22:54 1023 30.21 853 25.19 5.5 41.8 96 4.8 40.6 5.86 0.231
22:55 1023 30.21 853 25.19 5.4 41.8 96 4.8 40.6 5.787 0.228
22:56 1023 30.21 853 25.19 5.4 41.8 96 4.8 40.6 5.872 0.231
22:57 1023 30.21 853 25.19 5.5 41.8 96 4.8 40.7 5.838 0.23
22:58 1023 30.21 853 25.19 5.4 41.8 96 4.8 40.6 5.799 0.228
22:59 1023 30.21 853 25.19 5.4 41.8 96 4.8 40.6 5.81 0.229
23:00 1023 30.21 853 25.19 5.4 41.8 95 4.7 40.5 5.788 0.228
23:01 1023 30.21 853 25.19 5.4 41.8 96 4.8 40.6 5.788 0.228
23:02 1023 30.21 853 25.19 5.4 41.8 95 4.7 40.5 5.822 0.229
23:03 1023 30.21 853 25.19 5.4 41.8 95 4.7 40.5 5.828 0.229
23:04 1023 30.21 853 25.19 5.4 41.7 95 4.7 40.5 5.8 0.228
23:05 1023 30.21 853 25.19 5.4 41.8 95 4.7 40.5 5.783 0.228
23:06 1023 30.21 853 25.19 5.5 41.8 95 4.7 40.5 5.794 0.228
23:07 1023 30.21 853 25.19 5.4 41.8 95 4.7 40.5 5.788 0.228
23:08 1023 30.21 853 25.19 5.4 41.8 95 4.7 40.5 5.811 0.229
23:09 1023 30.21 853 25.19 5.4 41.7 95 4.7 40.5 5.817 0.229
23:10 1023 30.21 853 25.19 5.4 41.7 95 4.7 40.5 5.789 0.228
23:11 1023 30.21 853 25.19 5.4 41.7 95 4.7 40.5 5.772 0.227
23:12 1023 30.21 853 25.19 5.4 41.7 95 4.7 40.5 5.794 0.228
23:13 1023 30.21 853 25.19 5.4 41.7 95 4.7 40.5 5.761 0.227
23:14 1023 30.21 853 25.19 5.4 41.7 95 4.7 40.5 5.761 0.227
23:15 1023 30.21 853 25.19 5.4 41.7 96 4.7 40.5 5.766 0.227
23:16 1023 30.21 853 25.19 5.4 41.7 96 4.7 40.5 5.744 0.226
23:17 1023 30.21 853 25.19 5.4 41.7 96 4.7 40.5 5.755 0.227
23:18 1023 30.21 853 25.19 5.4 41.6 96 4.7 40.5 5.738 0.226
23:19 1023 30.21 853 25.19 5.4 41.7 96 4.7 40.5 5.749 0.226
23:20 1023 30.21 853 25.19 5.4 41.7 96 4.8 40.6 5.755 0.227
23:21 1023 30.21 853 25.19 5.4 41.7 96 4.8 40.6 5.749 0.226
23:22 1023 30.21 853 25.19 5.4 41.7 96 4.8 40.6 5.767 0.227
23:23 1023 30.21 853 25.19 5.3 41.6 96 4.7 40.5 5.755 0.227
23:24 1023 30.21 853 25.19 5.3 41.6 96 4.7 40.5 5.738 0.226
23:25 1023 30.21 853 25.19 5.3 41.6 96 4.7 40.5 5.738 0.226
23:26 1023 30.21 853 25.19 5.4 41.6 96 4.8 40.6 5.767 0.227
23:27 1023 30.21 853 25.19 5.4 41.7 96 4.8 40.6 5.744 0.226
23:28 1023 30.21 853 25.19 5.3 41.6 96 4.8 40.6 5.727 0.225
23:29 1023 30.21 853 25.19 5.3 41.6 96 4.8 40.6 5.772 0.227
23:30 1023 30.21 853 25.19 5.4 41.6 96 4.8 40.6 5.761 0.227
23:31 1023 30.21 853 25.19 5.3 41.6 96 4.8 40.6 5.733 0.226
23:32 1023 30.21 853 25.19 5.4 41.7 96 4.8 40.7 5.75 0.226
23:33 1023 30.21 853 25.19 5.3 41.6 96 4.8 40.6 5.733 0.226
23:34 1023 30.21 853 25.19 5.3 41.6 96 4.8 40.6 5.761 0.227
23:35 1023 30.21 853 25.19 5.3 41.6 96 4.8 40.6 5.744 0.226
23:36 1023 30.21 853 25.19 5.4 41.7 96 4.8 40.7 5.71 0.225
23:37 1023 30.21 853 25.19 5.3 41.6 96 4.8 40.6 5.727 0.225
23:38 1023 30.21 853 25.19 5.3 41.6 96 4.8 40.6 5.699 0.224
23:39 1023 30.21 853 25.19 5.3 41.6 96 4.8 40.6 5.716 0.225
23:40 1023 30.21 853 25.19 5.3 41.6 96 4.7 40.5 5.671 0.223
23:41 1023 30.21 853 25.19 5.3 41.5 96 4.7 40.5 5.688 0.224
23:42 1023 30.21 853 25.19 5.3 41.6 96 4.7 40.5 5.671 0.223
23:43 1023 30.21 853 25.19 5.3 41.6 96 4.7 40.5 5.665 0.223
23:44 1023 30.21 853 25.19 5.3 41.6 96 4.7 40.4 5.654 0.223
23:45 1023 30.21 853 25.19 5.4 41.7 96 4.8 40.6 5.705 0.225
23:46 1023 30.21 853 25.19 5.4 41.6 96 4.7 40.5 5.665 0.223
23:47 1023 30.21 853 25.19 5.3 41.6 96 4.7 40.5 5.682 0.224
23:48 1023 30.21 853 25.19 5.4 41.6 96 4.7 40.5 5.699 0.224
23:49 1023 30.21 853 25.19 5.4 41.6 96 4.8 40.6 5.71 0.225
23:50 1023 30.21 853 25.19 5.4 41.7 96 4.8 40.6 5.738 0.226
23:51 1023 30.21 853 25.19 5.4 41.6 96 4.8 40.6 5.71 0.225
23:52 1023 30.21 853 25.19 5.4 41.6 96 4.8 40.6 5.722 0.225
23:53 1023 30.21 853 25.19 5.4 41.7 96 4.8 40.7 5.682 0.224
23:54 1023 30.21 853 25.19 5.4 41.7 96 4.8 40.6 5.71 0.225
23:55 1023 30.21 853 25.19 5.3 41.6 96 4.8 40.6 5.722 0.225
23:56 1023 30.21 853 25.19 5.3 41.6 96 4.8 40.6 5.693 0.224
23:57 1023 30.21 853 25.19 5.3 41.5 96 4.8 40.6 5.722 0.225
23:58 1023 30.21 853 25.19 5.3 41.6 96 4.8 40.6 5.705 0.225
23:59 1023 30.21 853 25.19 5.3 41.6 96 4.8 40.6 5.665 0.223
24:00 1023 30.21 853 25.19 5.3 41.6 96 4.8 40.6 5.665 0.223